Return to Metar
METAR CYNL 192300Z AUTO 31011G18KT FEW064 15/02 A3009 RMK AO1 SLP193
METAR CYNL 192200Z AUTO 33012G19KT CLR 16/04 A3009 RMK AO1 SLP191
SPECI CYNL 192137Z AUTO 34013G19KT CLR 16/04 A3008 RMK AO1 WSHFT (21)37 SLP188
METAR CYNL 192100Z AUTO 30014G22KT FEW070 16/04 A3008 RMK AO1 SLP188
SPECI CYNL 192025Z AUTO 32015G24KT CLR 17/04 A3008 RMK AO1 WSHFT (20)25 SLP187
METAR CYNL 192000Z AUTO 27014G24KT FEW044 16/02 A3007 RMK AO1 SLP186
METAR CYNL 191900Z AUTO 26008G19KT FEW044 15/07 A3007 RMK AO1 SLP187
METAR CYNL 191800Z AUTO 27012G19KT SCT027 14/07 A3007 RMK AO1 SLP188
METAR CYNL 191700Z AUTO 27007G16KT FEW019 12/07 A3008 RMK AO1 SLP191
METAR CYNL 191600Z AUTO 30009KT FEW016 SCT023 BKN032 11/08 A3009 RMK AO1 SLP194
SPECI CYNL 191547Z AUTO 28009KT FEW016 SCT023 BKN035 11/08 A3009 RMK AO1 SLP192
SPECI CYNL 191542Z AUTO 27008G15KT FEW015 BKN023 11/08 A3009 RMK AO1 SLP192
METAR CYNL 191500Z AUTO 27007KT FEW047 12/07 A3008 RMK AO1 SLP189
METAR CYNL 191400Z AUTO 26005KT CLR 11/08 A3008 RMK AO1 SLP190
METAR CYNL 191300Z AUTO 26004KT CLR 09/08 A3007 RMK AO1 SLP188
METAR CYNL 191200Z AUTO 26003KT FEW047 09/08 A3006 RMK AO1 SLP184
METAR CYNL 191100Z AUTO 27003KT CLR 09/08 A3005 RMK AO1 SLP180
METAR CYNL 191000Z AUTO 28004KT FEW052 BKN066 09/08 A3005 RMK AO1 SLP174
METAR CYNL 190900Z AUTO 24003KT OVC066 09/08 A3004 RMK AO1 SLP171
METAR CYNL 190800Z AUTO 28004KT CLR 09/08 A3004 RMK AO1 SLP170
METAR CYNL 190700Z AUTO 28003KT FEW070 09/09 A3003 RMK AO1 SLP165
METAR CYNL 190600Z AUTO 30004KT CLR 10/09 A3002 RMK AO1 SLP162
METAR CYNL 190500Z AUTO 32004KT BKN066 11/09 A3000 RMK AO1 SLP157
METAR CYNL 190400Z AUTO 32008KT FEW042 BKN064 12/10 A2999 RMK AO1 PRESRR SLP150
SPECI CYNL 190306Z AUTO 32007KT VV030 12/10 A2997 RMK AO1 PRESRR SLP144
SPECI CYNL 190305Z AUTO 33007KT VV029 12/10 A2997 RMK AO1 PRESRR SLP144
SPECI CYNL 190304Z AUTO 33008KT VV030 12/10 A2997 RMK AO1 PRESRR SLP143
SPECI CYNL 190301Z AUTO 33008KT VV029 12/10 A2996 RMK AO1 PRESRR SLP143
METAR CYNL 190300Z AUTO 33009KT FEW021 BKN033 12/10 A2996 RMK AO1 PRESRR SLP142
METAR CYNL 190200Z AUTO 33007G16KT FEW023 14/09 A2992 RMK AO1 PRESRR SLP126
SPECI CYNL 190108Z AUTO 35011G24KT SCT025 14/09 A2990 RMK AO1 WSHFT (01)08 PRESRR SLP121
METAR CYNL 190100Z AUTO 32009G22KT FEW025 15/09 A2989 RMK AO1 PRESRR SLP118
METAR CYNL 190000Z AUTO 31007G17KT FEW070 15/07 A2985 RMK AO1 PRESRR SLP105
SPECI CYNL 182305Z AUTO 33014G20KT FEW047 18/06 A2983 RMK AO1 WSHFT (23)05 SLP098
METAR CYNL 182300Z AUTO 28010G21KT CLR 18/07 A2982 RMK AO1 SLP094
SPECI CYNL 182203Z AUTO 29012G20KT FEW047 18/07 A2980 RMK AO1 WSHFT (22)03 SLP088
METAR CYNL 182200Z AUTO 32007G22KT FEW047 18/07 A2980 RMK AO1 WSHFT (21)54 SLP088
SPECI CYNL 182154Z AUTO 33013G22KT FEW047 18/05 A2980 RMK AO1 WSHFT (21)54 SLP086
METAR CYNL 182100Z AUTO 30012G19KT SCT082 20/02 A2979 RMK AO1 SLP080
METAR CYNL 182000Z AUTO 26009KT FEW064 20/03 A2978 RMK AO1 SLP075
METAR CYNL 181900Z AUTO 25008G15KT CLR 19/06 A2978 RMK AO1 SLP076
METAR CYNL 181800Z AUTO 26006G16KT FEW190 19/05 A2978 RMK AO1 SLP075
METAR CYNL 181700Z AUTO 29012G20KT CLR 19/03 A2979 RMK AO1 SLP077
METAR CYNL 181600Z AUTO 28010KT CLR 18/05 A2978 RMK AO1 SLP077
METAR CYNL 181500Z AUTO 28009KT CLR 18/05 A2978 RMK AO1 SLP077
METAR CYNL 181400Z AUTO 27004KT CLR 16/06 A2978 RMK AO1 SLP075
METAR CYNL 181300Z AUTO 25003KT CLR 13/07 A2977 RMK AO1 SLP073
METAR CYNL 181200Z AUTO 00000KT CLR 11/07 A2977 RMK AO1 SLP072
METAR CYNL 181100Z AUTO 26003KT CLR 13/07 A2977 RMK AO1 SLP069
METAR CYNL 181000Z AUTO 27003KT BKN110 14/06 A2977 RMK AO1 PRESFR SLP070
METAR CYNL 180900Z AUTO 19006KT BKN092 16/06 A2980 RMK AO1 SLP076
METAR CYNL 180800Z AUTO 32004KT FEW096 16/05 A2980 RMK AO1 SLP078
METAR CYNL 180700Z AUTO 22003KT SCT100 16/06 A2979 RMK AO1 SLP075
METAR CYNL 180600Z AUTO 31004KT BKN110 16/06 A2978 RMK AO1 SLP075
METAR CYNL 180500Z AUTO 31004KT CLR 15/06 A2979 RMK AO1 SLP080
METAR CYNL 180400Z AUTO 30003KT CLR 16/03 A2979 RMK AO1 SLP080
METAR CYNL 180300Z AUTO 28004KT CLR 18/04 A2980 RMK AO1 SLP083
METAR CYNL 180200Z AUTO 27004KT CLR 22/03 A2979 RMK AO1 SLP078
METAR CYNL 180100Z AUTO 28009KT CLR 25/02 A2979 RMK AO1 SLP074
METAR CYNL 180000Z AUTO 24006KT FEW074 25/10 A2978 RMK AO1 SLP075
METAR CYNL 172300Z AUTO 22004KT CLR 24/10 A2980 RMK AO1 SLP081
METAR CYNL 172200Z AUTO 23005KT CLR 25/12 A2981 RMK AO1 SLP084
METAR CYNL 172100Z AUTO 23005KT CLR 24/13 A2982 RMK AO1 SLP087
METAR CYNL 172000Z AUTO 23008KT CLR 22/13 A2983 RMK AO1 SLP094
METAR CYNL 171900Z AUTO 22006KT CLR 21/13 A2984 RMK AO1 SLP099
METAR CYNL 171800Z AUTO 21006KT FEW170 19/12 A2985 RMK AO1 SLP103
METAR CYNL 171700Z AUTO 17008KT CLR 17/12 A2987 RMK AO1 SLP109
METAR CYNL 171600Z AUTO 20005KT FEW032 15/11 A2988 RMK AO1 SLP115
METAR CYNL 171500Z AUTO 18005KT CLR 14/10 A2990 RMK AO1 SLP121
METAR CYNL 171400Z AUTO 17007KT CLR 13/09 A2991 RMK AO1 PRESFR SLP125
METAR CYNL 171300Z AUTO 19003KT CLR 12/08 A2993 RMK AO1 SLP132
METAR CYNL 171200Z AUTO 18007KT CLR 11/08 A2994 RMK AO1 SLP135
METAR CYNL 171100Z AUTO 18006KT CLR 11/07 A2996 RMK AO1 SLP140
METAR CYNL 171000Z AUTO 18007KT CLR 12/07 A2997 RMK AO1 SLP144
METAR CYNL 170900Z AUTO 19006KT CLR 12/07 A2998 RMK AO1 PRESFR SLP149
METAR CYNL 170800Z AUTO 19007KT CLR 12/06 A3001 RMK AO1 SLP157
METAR CYNL 170700Z AUTO 19006KT CLR 13/06 A3002 RMK AO1 SLP161
METAR CYNL 170600Z AUTO 19007KT CLR 14/06 A3002 RMK AO1 SLP165
METAR CYNL 170500Z AUTO 18008KT CLR 14/06 A3004 RMK AO1 SLP169
METAR CYNL 170400Z AUTO 19009G15KT CLR 15/06 A3004 RMK AO1 SLP170
METAR CYNL 170300Z AUTO 17007KT CLR 16/06 A3003 RMK AO1 SLP170
METAR CYNL 170200Z AUTO 16007KT CLR 18/05 A3003 RMK AO1 SLP167
METAR CYNL 170100Z AUTO 18010KT CLR 19/03 A3004 RMK AO1 SLP169
METAR CYNL 170000Z AUTO 21009KT CLR 20/02 A3005 RMK AO1 SLP175
METAR CYNL 162300Z AUTO 20007KT CLR 20/02 A3006 RMK AO1 SLP183
METAR CYNL 162200Z AUTO 23009KT CLR 19/03 A3008 RMK AO1 SLP190
METAR CYNL 162100Z AUTO 18007KT CLR 18/04 A3009 RMK AO1 SLP194
METAR CYNL 162000Z AUTO 24009KT 200V270 CLR 17/03 A3011 RMK AO1 SLP201
METAR CYNL 161900Z AUTO 21006KT CLR 15/03 A3013 RMK AO1 SLP207
METAR CYNL 161800Z AUTO 21006KT 180V250 CLR 14/04 A3015 RMK AO1 SLP213
METAR CYNL 161700Z AUTO 19004KT CLR 13/04 A3015 RMK AO1 SLP217
METAR CYNL 161600Z AUTO 17005KT 140V200 CLR 11/04 A3016 RMK AO1 SLP219
METAR CYNL 161500Z AUTO 14004KT CLR 10/03 A3016 RMK AO1 SLP219
METAR CYNL 161400Z AUTO 13003KT CLR 09/02 A3016 RMK AO1 SLP219
METAR CYNL 161300Z AUTO 00000KT CLR 07/05 A3014 RMK AO1 SLP214
METAR CYNL 161200Z AUTO 26002KT CLR 04/03 A3013 RMK AO1 SLP212
METAR CYNL 161100Z AUTO 00000KT CLR 04/03 A3011 RMK AO1 PRESRR SLP209
METAR CYNL 161000Z AUTO 00000KT SCT024 05/03 A3009 RMK AO1 PRESRR SLP196
SPECI CYNL 160902Z AUTO 34004KT SCT023 06/03 A3006 RMK AO1 PRESRR SLP184
METAR CYNL 160900Z AUTO 35004KT BKN023 06/03 A3006 RMK AO1 PRESRR SLP184
SPECI CYNL 160853Z AUTO 34003KT BKN022 06/03 A3007 RMK AO1 SLP183
SPECI CYNL 160845Z AUTO 35004KT SCT022 06/03 A3006 RMK AO1 SLP182
SPECI CYNL 160844Z AUTO 35003KT BKN022 06/03 A3006 RMK AO1 SLP182
METAR CYNL 160800Z AUTO 00005KT SCT023 07/03 A3005 RMK AO1 SLP175
SPECI CYNL 160753Z AUTO 00004KT SCT023 07/03 A3005 RMK AO1 SLP172
SPECI CYNL 160717Z AUTO 35005KT BKN022 08/04 A3004 RMK AO1 SLP170
METAR CYNL 160700Z AUTO 00007KT SCT024 08/03 A3003 RMK AO1 SLP166
METAR CYNL 160600Z AUTO 00010KT CLR 08/03 A3001 RMK AO1 PRESRR SLP159
SPECI CYNL 160525Z AUTO 34009G20KT SCT027 09/04 A3000 RMK AO1 PRESRR SLP153
SPECI CYNL 160514Z AUTO 34009G19KT SCT021 BKN027 09/04 A2999 RMK AO1 PRESRR SLP151
SPECI CYNL 160510Z AUTO 34010G19KT FEW017 SCT023 09/04 A2999 RMK AO1 PRESRR SLP151
SPECI CYNL 160509Z AUTO 34011G19KT FEW017 SCT022 BKN027 09/04 A2999 RMK AO1 PRESRR SLP151
SPECI CYNL 160507Z AUTO 35013G19KT FEW017 SCT022 09/04 A2999 RMK AO1 PRESRR SLP150
SPECI CYNL 160505Z AUTO 35013G19KT FEW017 SCT022 BKN026 09/04 A2999 RMK AO1 PRESRR SLP149
METAR CYNL 160500Z AUTO 35010G17KT BKN021 09/05 A2998 RMK AO1 PRESRR SLP148
SPECI CYNL 160444Z AUTO 35012KT FEW016 BKN022 10/06 A2998 RMK AO1 PRESRR SLP145
SPECI CYNL 160443Z AUTO 35012KT FEW016 SCT022 BKN030 10/06 A2998 RMK AO1 PRESRR SLP145
SPECI CYNL 160438Z AUTO 34008KT SCT023 BKN029 10/06 A2997 RMK AO1 PRESRR SLP144
SPECI CYNL 160425Z AUTO 35008KT SCT029 10/06 A2996 RMK AO1 PRESRR SLP139
METAR CYNL 160400Z AUTO 35006KT BKN028 10/06 A2995 RMK AO1 PRESRR SLP136
SPECI CYNL 160353Z AUTO 34008G15KT SCT029 10/06 A2995 RMK AO1 PRESRR SLP135
SPECI CYNL 160343Z AUTO 34011KT BKN029 11/06 A2994 RMK AO1 PRESRR SLP134
SPECI CYNL 160313Z AUTO 33007G17KT SCT029 BKN038 11/07 A2993 RMK AO1 PRESRR SLP127
SPECI CYNL 160311Z AUTO 32009G17KT BKN028 BKN038 11/07 A2992 RMK AO1 PRESRR SLP127
METAR CYNL 160300Z AUTO 33009KT FEW022 BKN036 11/07 A2992 RMK AO1 PRESRR SLP124
METAR CYNL 160200Z AUTO 33015G21KT OVC043 13/06 A2987 RMK AO1 PRESRR SLP107
METAR CYNL 160100Z AUTO 31013G25KT BKN034 14/07 A2984 RMK AO1 PRESRR SLP098
SPECI CYNL 160014Z AUTO 32010G22KT FEW008 SCT017 BKN034 12/10 A2981 RMK AO1 PRESRR SLP093
SPECI CYNL 160013Z AUTO 32013G22KT FEW008 SCT017 BKN024 12/10 A2981 RMK AO1 PRESRR SLP093
SPECI CYNL 160011Z AUTO 31010G20KT VV025 12/10 A2981 RMK AO1 PRESRR SLP093
METAR CYNL 160000Z AUTO 32009G24KT FEW008 SCT012 BKN019 12/10 A2980 RMK AO1 PRESRR SLP091
SPECI CYNL 152342Z AUTO 30013G27KT FEW007 SCT019 BKN024 13/11 A2979 RMK AO1 PRESRR SLP086
SPECI CYNL 152341Z AUTO 30014G27KT FEW007 SCT019 OVC025 13/11 A2979 RMK AO1 PRESRR SLP085
SPECI CYNL 152336Z AUTO 30014G27KT VV021 13/11 A2978 RMK AO1 PRESRR SLP084
SPECI CYNL 152334Z AUTO 30014G27KT FEW020 BKN025 BKN033 14/11 A2978 RMK AO1 PRESRR SLP083
SPECI CYNL 152332Z AUTO 29015G26KT BKN024 BKN033 14/11 A2978 RMK AO1 PRESRR SLP082
SPECI CYNL 152324Z AUTO 28013G25KT BKN025 15/09 A2977 RMK AO1 PRESRR SLP078
SPECI CYNL 152317Z AUTO 28016G25KT SCT026 BKN033 15/09 A2977 RMK AO1 PRESRR SLP076
SPECI CYNL 152313Z AUTO 29012G25KT BKN029 15/09 A2977 RMK AO1 PRESRR SLP076
METAR CYNL 152300Z AUTO 28017G26KT BKN032 15/08 A2976 RMK AO1 PRESRR SLP073
METAR CYNL 152200Z AUTO 29014G27KT BKN043 17/07 A2972 RMK AO1 PRESRR SLP058
METAR CYNL 152100Z AUTO 28013G25KT SCT045 19/08 A2969 RMK AO1 PRESRR SLP045
METAR CYNL 152000Z AUTO 27014G22KT FEW050 21/08 A2965 RMK AO1 SLP030
METAR CYNL 151900Z AUTO 28014G27KT FEW210 21/07 A2963 RMK AO1 PRESRR SLP022
METAR CYNL 151800Z AUTO 28014G22KT CLR 22/06 A2961 RMK AO1 SLP014
METAR CYNL 151700Z AUTO 27008G18KT CLR 22/08 A2960 RMK AO1 SLP011
METAR CYNL 151600Z AUTO 25009KT CLR 22/09 A2960 RMK AO1 SLP009
METAR CYNL 151500Z AUTO 25006KT FEW110 20/10 A2960 RMK AO1 SLP011
METAR CYNL 151400Z AUTO 23002KT FEW120 18/10 A2959 RMK AO1 SLP012
METAR CYNL 151300Z AUTO 00000KT CLR 16/11 A2959 RMK AO1 SLP010
METAR CYNL 151200Z AUTO 24003KT BKN130 15/11 A2958 RMK AO1 SLP007
METAR CYNL 151100Z AUTO 24004KT CLR 15/12 A2958 RMK AO1 SLP007
METAR CYNL 151000Z AUTO 22004KT BKN140 16/13 A2958 RMK AO1 SLP005
METAR CYNL 150900Z AUTO 22004KT FEW140 SCT160 16/13 A2957 RMK AO1 SLP004
METAR CYNL 150800Z AUTO 23004KT SCT120 17/13 A2957 RMK AO1 SLP004
METAR CYNL 150700Z AUTO 22006KT SCT130 17/12 A2958 RMK AO1 SLP007
METAR CYNL 150600Z AUTO 21006KT CLR 17/12 A2958 RMK AO1 SLP009
METAR CYNL 150500Z AUTO 19005KT FEW160 17/12 A2959 RMK AO1 SLP015
METAR CYNL 150400Z AUTO 20004KT CLR 17/12 A2961 RMK AO1 SLP019
METAR CYNL 150300Z AUTO 19003KT FEW078 17/12 A2961 RMK AO1 SLP020
METAR CYNL 150200Z AUTO 19004KT FEW078 18/12 A2960 RMK AO1 SLP018
METAR CYNL 150100Z AUTO 23006KT CLR 20/11 A2961 RMK AO1 SLP019
METAR CYNL 150000Z AUTO 22009KT FEW042 20/11 A2960 RMK AO1 SLP015
METAR CYNL 142300Z AUTO 23010G17KT CLR 20/10 A2960 RMK AO1 SLP014
METAR CYNL 142200Z AUTO 20009G17KT CLR 18/10 A2960 RMK AO1 SLP016
METAR CYNL 142100Z AUTO 21012G20KT CLR 18/09 A2961 RMK AO1 SLP021
METAR CYNL 142000Z AUTO 20010G19KT CLR 16/09 A2962 RMK AO1 SLP025
METAR CYNL 141900Z AUTO 20012G17KT CLR 15/09 A2963 RMK AO1 SLP028
METAR CYNL 141800Z AUTO 21011G16KT BKN076 14/08 A2964 RMK AO1 SLP034
METAR CYNL 141700Z AUTO 20008G18KT CLR 14/08 A2965 RMK AO1 SLP038
METAR CYNL 141600Z AUTO 20012G20KT FEW070 14/08 A2966 RMK AO1 SLP040
METAR CYNL 141500Z AUTO 19015G23KT FEW060 13/09 A2967 RMK AO1 PRESFR SLP044
METAR CYNL 141400Z AUTO 19011G18KT FEW076 12/09 A2970 RMK AO1 SLP054
METAR CYNL 141300Z AUTO 18015G22KT CLR 14/08 A2971 RMK AO1 PRESFR SLP055
METAR CYNL 141200Z AUTO 18009G16KT CLR 14/07 A2975 RMK AO1 PRESFR SLP067
METAR CYNL 141100Z AUTO 18009G15KT CLR 14/08 A2978 RMK AO1 PRESFR SLP076
METAR CYNL 141000Z AUTO 19010G15KT CLR 14/07 A2980 RMK AO1 SLP083
METAR CYNL 140900Z AUTO 20011G19KT CLR 14/07 A2981 RMK AO1 PRESFR SLP088
METAR CYNL 140800Z AUTO 20010G17KT CLR 14/06 A2984 RMK AO1 SLP097
METAR CYNL 140700Z AUTO 19008KT SCT110 15/06 A2985 RMK AO1 PRESFR SLP101
METAR CYNL 140600Z AUTO 20009KT SCT110 15/05 A2987 RMK AO1 PRESFR SLP110
METAR CYNL 140500Z AUTO 19006KT CLR 15/05 A2990 RMK AO1 SLP120
METAR CYNL 140400Z AUTO 19006KT CLR 15/04 A2991 RMK AO1 SLP124
METAR CYNL 140300Z AUTO 18005KT CLR 16/04 A2993 RMK AO1 SLP131
METAR CYNL 140200Z AUTO 20005KT CLR 17/03 A2993 RMK AO1 SLP130
METAR CYNL 140100Z AUTO 22007KT CLR 19/01 A2995 RMK AO1 SLP133
METAR CYNL 140000Z AUTO 23009KT CLR 20/00 A2997 RMK AO1 SLP144
METAR CYNL 132300Z AUTO 22008G16KT CLR 20/01 A2998 RMK AO1 PRESFR SLP153
METAR CYNL 132200Z AUTO 22009KT 190V260 CLR 20/01 A3000 RMK AO1 SLP161
METAR CYNL 132100Z AUTO 22008KT FEW070 19/01 A3002 RMK AO1 PRESFR SLP165
METAR CYNL 132000Z AUTO 24006KT CLR 19/01 A3004 RMK AO1 SLP173
METAR CYNL 131900Z AUTO 19006KT FEW058 18/02 A3005 RMK AO1 SLP180
METAR CYNL 131800Z AUTO 19009KT CLR 17/04 A3007 RMK AO1 SLP186
METAR CYNL 131700Z AUTO 20007KT 160V250 SCT052 BKN080 17/04 A3009 RMK AO1 SLP192
METAR CYNL 131600Z AUTO 16005KT CLR 16/04 A3010 RMK AO1 SLP196
METAR CYNL 131500Z AUTO 17005KT CLR 15/06 A3011 RMK AO1 SLP198
METAR CYNL 131400Z AUTO 00000KT CLR 16/06 A3012 RMK AO1 SLP199
METAR CYNL 131300Z AUTO 00000KT CLR 11/08 A3013 RMK AO1 SLP205
METAR CYNL 131200Z AUTO 00000KT CLR 06/05 A3013 RMK AO1 SLP208
METAR CYNL 131100Z AUTO 00000KT CLR 05/04 A3013 RMK AO1 SLP209
METAR CYNL 131000Z AUTO 00000KT CLR 06/04 A3013 RMK AO1 SLP206
METAR CYNL 130900Z AUTO 34003KT CLR 06/05 A3013 RMK AO1 SLP206
METAR CYNL 130800Z AUTO 00000KT CLR 06/05 A3013 RMK AO1 SLP208
METAR CYNL 130700Z AUTO 35002KT CLR 07/05 A3015 RMK AO1 SLP213
METAR CYNL 130600Z AUTO 31002KT CLR 08/06 A3016 RMK AO1 SLP217
METAR CYNL 130500Z AUTO 00000KT SCT220 09/05 A3015 RMK AO1 SLP213
METAR CYNL 130400Z AUTO 00000KT CLR 10/06 A3015 RMK AO1 SLP213
METAR CYNL 130300Z AUTO 11003KT CLR 13/05 A3016 RMK AO1 SLP213
METAR CYNL 130200Z AUTO 12003KT FEW240 15/05 A3016 RMK AO1 SLP211
METAR CYNL 130100Z AUTO 04004KT CLR 16/03 A3015 RMK AO1 SLP210
METAR CYNL 130000Z AUTO 03007KT BKN062 17/02 A3016 RMK AO1 SLP214
METAR CYNL 122300Z AUTO 03005KT 350V060 SCT060 18/02 A3017 RMK AO1 SLP219
METAR CYNL 122200Z AUTO 03007KT 350V070 CLR 17/01 A3018 RMK AO1 SLP221
METAR CYNL 122100Z AUTO 35006KT 320V030 FEW058 17/01 A3019 RMK AO1 SLP226
METAR CYNL 122000Z AUTO 35008KT 300V030 CLR 17/02 A3020 RMK AO1 SLP228
METAR CYNL 121900Z AUTO VRB03KT CLR 15/01 A3020 RMK AO1 SLP228
METAR CYNL 121800Z AUTO 29003KT CLR 15/01 A3021 RMK AO1 SLP234
METAR CYNL 121700Z AUTO 26005KT 220V310 CLR 14/01 A3023 RMK AO1 SLP238
METAR CYNL 121600Z AUTO 30005KT 250V350 CLR 13/03 A3023 RMK AO1 SLP241
METAR CYNL 121500Z AUTO 32005KT 280V000 CLR 13/03 A3023 RMK AO1 SLP241
METAR CYNL 121400Z AUTO 30004KT 270V330 CLR 11/03 A3023 RMK AO1 SLP239
METAR CYNL 121300Z AUTO 30003KT CLR 08/05 A3022 RMK AO1 SLP238
METAR CYNL 121200Z AUTO 27002KT CLR 06/05 A3021 RMK AO1 SLP238
METAR CYNL 121100Z AUTO 00000KT CLR 07/05 A3020 RMK AO1 SLP231
METAR CYNL 121000Z AUTO 32003KT CLR 08/05 A3019 RMK AO1 SLP225
METAR CYNL 120900Z AUTO 31003KT CLR 08/04 A3018 RMK AO1 PRESRR SLP222
METAR CYNL 120800Z AUTO 33007KT FEW025 10/05 A3016 RMK AO1 SLP213
METAR CYNL 120700Z AUTO 32007KT OVC039 10/06 A3014 RMK AO1 SLP205
METAR CYNL 120600Z AUTO 30007KT FEW027 10/06 A3012 RMK AO1 SLP200
METAR CYNL 120500Z AUTO 29009KT CLR 11/06 A3011 RMK AO1 SLP196
METAR CYNL 120400Z AUTO 30007G16KT CLR 12/05 A3009 RMK AO1 SLP190
METAR CYNL 120300Z AUTO 29009G16KT BKN035 12/05 A3008 RMK AO1 PRESRR SLP185
METAR CYNL 120200Z AUTO 29011G19KT CLR 14/05 A3005 RMK AO1 PRESRR SLP175
METAR CYNL 120100Z AUTO 28011G18KT CLR 15/05 A3003 RMK AO1 PRESRR SLP166
METAR CYNL 120000Z AUTO 31012G21KT CLR 15/05 A3001 RMK AO1 PRESRR SLP158
METAR CYNL 112300Z AUTO 30012G20KT FEW042 16/05 A2999 RMK AO1 SLP150
METAR CYNL 112200Z AUTO 28015G24KT FEW045 17/05 A2997 RMK AO1 SLP144
METAR CYNL 112100Z AUTO 29014G25KT CLR 17/03 A2996 RMK AO1 PRESRR SLP139
METAR CYNL 112000Z AUTO 30013G24KT CLR 17/04 A2994 RMK AO1 SLP130
METAR CYNL 111900Z AUTO 28016G23KT CLR 17/05 A2993 RMK AO1 SLP125
METAR CYNL 111800Z AUTO 29015G25KT CLR 16/06 A2991 RMK AO1 SLP120
METAR CYNL 111700Z AUTO 29016G24KT CLR 16/06 A2989 RMK AO1 PRESRR SLP113
METAR CYNL 111600Z AUTO 28014G24KT CLR 15/06 A2987 RMK AO1 SLP104
METAR CYNL 111500Z AUTO 29018G29KT CLR 15/06 A2986 RMK AO1 SLP101
METAR CYNL 111400Z AUTO 28016G28KT CLR 15/06 A2984 RMK AO1 PRESRR SLP093
METAR CYNL 111300Z AUTO 28012G22KT CLR 16/07 A2982 RMK AO1 PRESRR SLP083
METAR CYNL 111200Z AUTO 29010G19KT CLR 15/08 A2979 RMK AO1 PRESRR SLP073
METAR CYNL 111100Z AUTO 29008KT CLR 16/09 A2975 RMK AO1 PRESRR SLP060
METAR CYNL 111000Z AUTO 27008KT CLR 17/10 A2972 RMK AO1 SLP048
METAR CYNL 110900Z AUTO 27006KT CLR 17/11 A2971 RMK AO1 SLP044
METAR CYNL 110800Z AUTO 26006KT CLR 18/11 A2971 RMK AO1 SLP043
METAR CYNL 110700Z AUTO 26005KT CLR 19/12 A2970 RMK AO1 SLP039
METAR CYNL 110600Z AUTO 28006KT CLR 20/12 A2968 RMK AO1 SLP033
METAR CYNL 110500Z AUTO 30007KT CLR 21/13 A2966 RMK AO1 PRESRR SLP027
METAR CYNL 110400Z AUTO 21003KT CLR 22/16 A2964 RMK AO1 SLP017
METAR CYNL 110300Z AUTO 17004KT CLR 23/16 A2963 RMK AO1 SLP014
METAR CYNL 110200Z AUTO 17005KT CLR 24/16 A2965 RMK AO1 PRESFR SLP020
METAR CYNL 110100Z AUTO 16008KT CLR 25/16 A2967 RMK AO1 SLP030
METAR CYNL 110000Z AUTO 16007KT CLR 25/16 A2969 RMK AO1 PRESFR SLP038
METAR CYNL 102300Z AUTO 17009G16KT CLR 26/16 A2972 RMK AO1 SLP050
METAR CYNL 102200Z AUTO 17008KT CLR 26/15 A2974 RMK AO1 PRESFR SLP057
METAR CYNL 102100Z AUTO 17008KT CLR 25/15 A2976 RMK AO1 PRESFR SLP066
METAR CYNL 102000Z AUTO 18008KT FEW200 24/14 A2978 RMK AO1 SLP074
METAR CYNL 101900Z AUTO 17008KT CLR 23/13 A2980 RMK AO1 PRESFR SLP079
METAR CYNL 101800Z AUTO 17007KT FEW180 22/12 A2982 RMK AO1 SLP086
METAR CYNL 101700Z AUTO 16008KT CLR 23/10 A2983 RMK AO1 SLP088
METAR CYNL 101600Z AUTO 17007KT CLR 23/10 A2984 RMK AO1 SLP089
METAR CYNL 101500Z AUTO 15006KT CLR 21/10 A2984 RMK AO1 SLP090
METAR CYNL 101400Z AUTO 13002KT CLR 19/11 A2986 RMK AO1 SLP097
METAR CYNL 101300Z AUTO 00000KT CLR 16/13 A2987 RMK AO1 SLP100
METAR CYNL 101200Z AUTO 00000KT CLR 14/12 A2987 RMK AO1 SLP101
METAR CYNL 101100Z AUTO 00000KT CLR 12/11 A2986 RMK AO1 SLP100
METAR CYNL 101000Z AUTO 25003KT CLR 13/10 A2987 RMK AO1 SLP100
METAR CYNL 100900Z AUTO 23004KT CLR 13/10 A2986 RMK AO1 SLP098
METAR CYNL 100800Z AUTO 26005KT CLR 14/10 A2985 RMK AO1 SLP094
METAR CYNL 100700Z AUTO 24003KT CLR 15/10 A2986 RMK AO1 SLP095
METAR CYNL 100600Z AUTO 29004KT CLR 16/10 A2985 RMK AO1 SLP092
METAR CYNL 100500Z AUTO 28004KT CLR 17/10 A2984 RMK AO1 SLP088
METAR CYNL 100400Z AUTO 30004KT CLR 20/08 A2983 RMK AO1 SLP083
METAR CYNL 100300Z AUTO 28005KT CLR 22/07 A2983 RMK AO1 SLP080
METAR CYNL 100200Z AUTO 28006KT CLR 24/07 A2982 RMK AO1 SLP076
METAR CYNL 100100Z AUTO 28007KT CLR 25/07 A2981 RMK AO1 SLP076
METAR CYNL 100000Z AUTO 29008G16KT CLR 26/06 A2981 RMK AO1 SLP078
METAR CYNL 092300Z AUTO 30010G18KT CLR 27/06 A2980 RMK AO1 SLP075
METAR CYNL 092200Z AUTO 31010G19KT CLR 28/07 A2979 RMK AO1 SLP075
METAR CYNL 092100Z AUTO 31011G18KT CLR 28/08 A2979 RMK AO1 SLP070
METAR CYNL 092000Z AUTO 27011G18KT CLR 27/11 A2979 RMK AO1 SLP071
METAR CYNL 091900Z AUTO 30008G21KT CLR 27/11 A2978 RMK AO1 SLP068
METAR CYNL 091800Z AUTO 28011G18KT CLR 26/11 A2977 RMK AO1 SLP067
METAR CYNL 091700Z AUTO 25006KT CLR 25/13 A2977 RMK AO1 SLP067
METAR CYNL 091600Z AUTO 26006KT CLR 24/13 A2978 RMK AO1 SLP068
METAR CYNL 091500Z AUTO 27006KT CLR 23/13 A2977 RMK AO1 SLP067
METAR CYNL 091400Z AUTO 23006KT CLR 20/13 A2977 RMK AO1 SLP069
METAR CYNL 091300Z AUTO 20005KT CLR 17/12 A2977 RMK AO1 SLP070
METAR CYNL 091200Z AUTO 17004KT CLR 15/12 A2978 RMK AO1 SLP074
METAR CYNL 091100Z AUTO 00000KT CLR 13/12 A2980 RMK AO1 SLP081
METAR CYNL 091000Z AUTO 20003KT FEW082 14/13 A2981 RMK AO1 SLP084
METAR CYNL 090900Z AUTO 00000KT CLR 15/14 A2982 RMK AO1 SLP086
METAR CYNL 090800Z AUTO 27003KT CLR 15/14 A2982 RMK AO1 SLP089
METAR CYNL 090700Z AUTO 25003KT CLR 15/14 A2982 RMK AO1 SLP087
METAR CYNL 090600Z AUTO 23003KT CLR 16/14 A2982 RMK AO1 SLP087
METAR CYNL 090500Z AUTO 18003KT CLR 18/15 A2982 RMK AO1 SLP085
METAR CYNL 090400Z AUTO 16004KT SCT120 19/14 A2982 RMK AO1 SLP083
METAR CYNL 090300Z AUTO 15004KT CLR 19/15 A2982 RMK AO1 SLP084
METAR CYNL 090200Z AUTO 17003KT CLR 20/14 A2982 RMK AO1 SLP085
METAR CYNL 090100Z AUTO 22005KT CLR 22/13 A2982 RMK AO1 SLP085
METAR CYNL 090000Z AUTO 32003KT CLR 22/13 A2982 RMK AO1 SLP085
METAR CYNL 082300Z AUTO 26005KT FEW086 22/13 A2982 RMK AO1 SLP088
METAR CYNL 082200Z AUTO 25007KT FEW029 22/13 A2981 RMK AO1 SLP087
METAR CYNL 082100Z AUTO 31002KT FEW027 SCT045 BKN210 19/15 A2982 RMK AO1 SLP091
METAR CYNL 082000Z AUTO 28007KT FEW028 SCT200 21/13 A2981 RMK AO1 SLP087
METAR CYNL 081900Z AUTO 25005KT FEW050 20/13 A2982 RMK AO1 SLP090
METAR CYNL 081800Z AUTO 28009KT BKN058 20/13 A2982 RMK AO1 SLP088
SPECI CYNL 081713Z AUTO 25008KT SCT028 BKN042 20/13 A2981 RMK AO1 SLP087
SPECI CYNL 081705Z AUTO 23007KT BKN029 20/13 A2981 RMK AO1 SLP086
METAR CYNL 081700Z AUTO 23009KT SCT031 BKN040 20/13 A2981 RMK AO1 SLP085
METAR CYNL 081600Z AUTO 25008KT CLR 19/12 A2981 RMK AO1 SLP086
METAR CYNL 081500Z AUTO 23004KT FEW110 17/13 A2981 RMK AO1 SLP087
METAR CYNL 081400Z AUTO 24004KT CLR 16/13 A2981 RMK AO1 SLP085
METAR CYNL 081300Z AUTO 27003KT FEW056 15/12 A2979 RMK AO1 SLP081
METAR CYNL 081200Z AUTO 27003KT FEW180 13/12 A2978 RMK AO1 SLP077
METAR CYNL 081100Z AUTO 28003KT BKN190 13/12 A2977 RMK AO1 SLP074
METAR CYNL 081000Z AUTO 28003KT CLR 13/12 A2976 RMK AO1 SLP068
METAR CYNL 080900Z AUTO 27003KT CLR 14/12 A2975 RMK AO1 SLP064
METAR CYNL 080800Z AUTO 30006KT CLR 14/12 A2975 RMK AO1 SLP063
METAR CYNL 080700Z AUTO 30006KT CLR 15/12 A2973 RMK AO1 SLP062
METAR CYNL 080600Z AUTO 30006KT CLR 16/12 A2973 RMK AO1 SLP057
METAR CYNL 080500Z AUTO 29005KT CLR 15/12 A2972 RMK AO1 SLP056
METAR CYNL 080400Z AUTO 28003KT FEW068 16/12 A2971 RMK AO1 SLP054
METAR CYNL 080300Z AUTO 32005KT CLR 17/11 A2969 RMK AO1 PRESRR SLP047
METAR CYNL 080200Z AUTO 34006KT 19/12 A2967 RMK AO1 PRESRR SLP037
METAR CYNL 080100Z AUTO 32009G15KT FEW034 20/12 A2964 RMK AO1 SLP027
METAR CYNL 080000Z AUTO 33011G18KT BKN038 20/15 A2963 RMK AO1 PRESRR SLP024
METAR CYNL 072300Z AUTO 29010G15KT FEW052 22/12 A2960 RMK AO1 SLP013
METAR CYNL 072200Z AUTO 31010G19KT FEW050 22/12 A2959 RMK AO1 SLP008
METAR CYNL 072100Z AUTO 28010KT FEW029 21/14 A2959 RMK AO1 SLP009
METAR CYNL 072000Z AUTO 00006G16KT FEW018 SCT038 BKN210 17/15 A2958 RMK AO1 WSHFT (19)48 SLP011
SPECI CYNL 071948Z AUTO 29015G22KT 260V320 FEW024 SCT035 BKN210 20/15 A2958 RMK AO1 WSHFT (19)48 SLP007
METAR CYNL 071900Z AUTO 29006KT FEW031 20/14 A2957 RMK AO1 SLP002
METAR CYNL 071800Z AUTO 26008KT SCT020 19/14 A2958 RMK AO1 SLP009
SPECI CYNL 071738Z AUTO 26009KT SCT015 BKN150 19/14 A2959 RMK AO1 SLP010
SPECI CYNL 071729Z AUTO 26008KT OVC015 18/15 A2959 RMK AO1 SLP010
METAR CYNL 071700Z AUTO 26008KT BKN013 BKN018 17/15 A2959 RMK AO1 SLP012
SPECI CYNL 071649Z AUTO 26006KT FEW009 BKN013 17/15 A2959 RMK AO1 SLP011
SPECI CYNL 071647Z AUTO 26006KT BKN012 17/15 A2959 RMK AO1 SLP011
SPECI CYNL 071645Z AUTO 27007KT SCT012 BKN018 17/15 A2959 RMK AO1 SLP011
SPECI CYNL 071643Z AUTO 26007KT FEW009 SCT013 17/15 A2959 RMK AO1 SLP011
SPECI CYNL 071606Z AUTO 27004KT SCT029 16/15 A2960 RMK AO1 SLP015
METAR CYNL 071600Z AUTO 26005KT BKN029 16/15 A2959 RMK AO1 SLP015
SPECI CYNL 071554Z AUTO 27004KT BKN029 16/15 A2959 RMK AO1 SLP014
SPECI CYNL 071532Z AUTO 28007KT VV031 15/15 A2960 RMK AO1 SLP016
SPECI CYNL 071529Z AUTO 28004KT VV027 15/15 A2960 RMK AO1 SLP016
METAR CYNL 071500Z AUTO 25006KT VV030 16/14 A2959 RMK AO1 SLP014
METAR CYNL 071400Z AUTO 28005KT CLR 16/14 A2959 RMK AO1 SLP012
METAR CYNL 071300Z AUTO 26004KT FEW052 16/14 A2958 RMK AO1 SLP009
METAR CYNL 071200Z AUTO 00000KT CLR 14/14 A2958 RMK AO1 SLP011
METAR CYNL 071100Z AUTO 22002KT FEW074 15/14 A2959 RMK AO1 SLP010
METAR CYNL 071000Z AUTO 16003KT SCT039 15/14 A2959 RMK AO1 SLP011
METAR CYNL 070900Z AUTO 18002KT FEW043 SCT070 15/14 A2960 RMK AO1 SLP015
METAR CYNL 070800Z AUTO 18002KT BKN082 15/14 A2962 RMK AO1 SLP020
METAR CYNL 070700Z AUTO 13002KT FEW052 14/13 A2963 RMK AO1 SLP027
METAR CYNL 070600Z AUTO 00000KT FEW170 15/12 A2964 RMK AO1 SLP031
METAR CYNL 070500Z AUTO 00000KT OVC180 16/13 A2966 RMK AO1 SLP036
METAR CYNL 070400Z AUTO 12003KT SCT140 BKN190 16/13 A2967 RMK AO1 SLP039
METAR CYNL 070300Z AUTO 00000KT BKN092 17/14 A2967 RMK AO1 SLP039
METAR CYNL 070200Z AUTO 08002KT CLR 18/13 A2968 RMK AO1 SLP042
METAR CYNL 070100Z AUTO 02002KT CLR 18/13 A2969 RMK AO1 SLP044
METAR CYNL 070000Z AUTO 32004KT CLR 19/12 A2969 RMK AO1 SLP046
METAR CYNL 062300Z AUTO 32004KT SCT033 20/12 A2970 RMK AO1 SLP047
METAR CYNL 062200Z AUTO 30006KT FEW027 19/12 A2970 RMK AO1 SLP049
SPECI CYNL 062131Z AUTO 32007KT SCT028 19/12 A2971 RMK AO1 SLP052
SPECI CYNL 062122Z AUTO 33007KT BKN028 19/12 A2971 RMK AO1 SLP054
METAR CYNL 062100Z AUTO 31009G15KT SCT024 18/12 A2971 RMK AO1 SLP054
SPECI CYNL 062055Z AUTO 31010KT SCT024 BKN030 18/12 A2971 RMK AO1 SLP054
SPECI CYNL 062053Z AUTO 31007KT BKN024 18/11 A2971 RMK AO1 SLP055
SPECI CYNL 062050Z AUTO 29009KT BKN025 18/12 A2971 RMK AO1 SLP056
SPECI CYNL 062032Z AUTO 31005G15KT OVC024 18/12 A2971 RMK AO1 SLP055
SPECI CYNL 062030Z AUTO 33010G15KT SCT021 OVC026 18/12 A2971 RMK AO1 SLP056
SPECI CYNL 062029Z AUTO 33010G16KT OVC024 18/12 A2971 RMK AO1 SLP056
SPECI CYNL 062020Z AUTO 31010G16KT SCT021 OVC027 18/12 A2971 RMK AO1 SLP055
SPECI CYNL 062017Z AUTO 32006G16KT OVC023 18/12 A2971 RMK AO1 SLP056
SPECI CYNL 062016Z AUTO 31005G16KT SCT021 OVC026 18/12 A2971 RMK AO1 SLP056
SPECI CYNL 062013Z AUTO 30006G16KT OVC024 18/12 A2971 RMK AO1 SLP056
SPECI CYNL 062006Z AUTO 31007G17KT SCT020 OVC027 18/12 A2972 RMK AO1 SLP057
SPECI CYNL 062001Z AUTO 31010G17KT BKN021 OVC027 18/12 A2972 RMK AO1 SLP058
METAR CYNL 062000Z AUTO 30010G17KT SCT021 OVC027 17/12 A2972 RMK AO1 SLP057
SPECI CYNL 061959Z AUTO 28011G17KT SCT021 OVC027 17/12 A2972 RMK AO1 SLP057
SPECI CYNL 061958Z AUTO 28011G17KT BKN022 OVC028 18/12 A2972 RMK AO1 SLP057
SPECI CYNL 061957Z AUTO 28011G17KT SCT021 OVC028 18/12 A2972 RMK AO1 SLP057
SPECI CYNL 061956Z AUTO 29012KT OVC024 18/12 A2971 RMK AO1 SLP057
SPECI CYNL 061937Z AUTO 29009G17KT FEW013 SCT017 OVC025 17/12 A2972 RMK AO1 SLP057
SPECI CYNL 061934Z AUTO 30008G17KT FEW013 SCT017 BKN022 17/12 A2972 RMK AO1 SLP058
SPECI CYNL 061920Z AUTO 31008G17KT FEW013 SCT016 OVC025 16/13 A2972 RMK AO1 SLP058
SPECI CYNL 061916Z AUTO 30011G17KT BKN016 OVC025 17/13 A2972 RMK AO1 SLP058
SPECI CYNL 061912Z AUTO 29009G15KT SCT017 OVC025 17/13 A2972 RMK AO1 SLP058
SPECI CYNL 061911Z AUTO 29009G15KT SCT017 OVC024 17/12 A2972 RMK AO1 SLP058
SPECI CYNL 061907Z AUTO 28011KT SCT018 OVC025 17/12 A2972 RMK AO1 SLP058
METAR CYNL 061900Z AUTO 29007G17KT SCT015 OVC023 17/12 A2972 RMK AO1 SLP058
SPECI CYNL 061837Z AUTO 30011G17KT BKN015 OVC022 16/12 A2972 RMK AO1 SLP058
SPECI CYNL 061836Z AUTO 29011G17KT BKN014 OVC022 16/12 A2972 RMK AO1 SLP058
METAR CYNL 061800Z AUTO 32007KT BKN017 OVC028 16/12 A2971 RMK AO1 SLP054
METAR CYNL 061700Z AUTO 30012G19KT BKN016 BKN030 16/13 A2971 RMK AO1 SLP053
SPECI CYNL 061655Z AUTO 30012G18KT SCT016 BKN021 17/13 A2970 RMK AO1 SLP052
SPECI CYNL 061636Z AUTO 30011G19KT SCT014 BKN033 17/14 A2970 RMK AO1 SLP050
SPECI CYNL 061634Z AUTO 29009G19KT SCT014 BKN026 BKN034 17/14 A2970 RMK AO1 SLP050
SPECI CYNL 061623Z AUTO 30013G19KT SCT013 BKN030 OVC037 17/14 A2970 RMK AO1 SLP050
SPECI CYNL 061618Z AUTO 28010KT SCT013 BKN026 OVC038 17/14 A2970 RMK AO1 SLP049
SPECI CYNL 061614Z AUTO 29010G17KT SCT013 BKN018 OVC037 17/14 A2970 RMK AO1 SLP048
METAR CYNL 061600Z AUTO 27011G18KT SCT012 BKN039 17/14 A2969 RMK AO1 SLP047
SPECI CYNL 061556Z AUTO 27009G16KT SCT013 OVC039 18/14 A2969 RMK AO1 SLP047
SPECI CYNL 061555Z AUTO 27009G16KT SCT012 BKN017 OVC039 18/14 A2969 RMK AO1 SLP047
SPECI CYNL 061554Z AUTO 27009G16KT SCT012 OVC039 18/14 A2969 RMK AO1 SLP047
SPECI CYNL 061542Z AUTO 27010G16KT SCT012 BKN017 BKN038 17/15 A2969 RMK AO1 SLP047
SPECI CYNL 061538Z AUTO 28009G15KT SCT012 BKN038 17/14 A2969 RMK AO1 SLP046
SPECI CYNL 061534Z AUTO 27009G15KT SCT013 BKN019 BKN038 17/15 A2969 RMK AO1 SLP046
SPECI CYNL 061524Z AUTO 27009KT FEW013 BKN025 OVC037 17/15 A2969 RMK AO1 SLP047
SPECI CYNL 061522Z AUTO 27008KT FEW015 SCT025 OVC036 17/15 A2969 RMK AO1 SLP047
SPECI CYNL 061521Z AUTO 26007KT FEW014 BKN025 BKN036 17/15 A2969 RMK AO1 SLP047
SPECI CYNL 061515Z AUTO 27008KT FEW013 SCT016 BKN024 16/14 A2969 RMK AO1 SLP048
SPECI CYNL 061504Z AUTO 26008KT FEW013 OVC025 16/14 A2970 RMK AO1 SLP049
METAR CYNL 061500Z AUTO 26007KT SCT013 OVC024 16/14 A2970 RMK AO1 SLP050
SPECI CYNL 061433Z AUTO 26008KT SCT011 BKN017 OVC023 16/15 A2970 RMK AO1 SLP050
SPECI CYNL 061432Z AUTO 26007KT BKN011 OVC023 16/15 A2970 RMK AO1 SLP050
SPECI CYNL 061401Z AUTO 27007KT SCT010 OVC015 16/15 A2969 RMK AO1 SLP048
METAR CYNL 061400Z AUTO 26007KT BKN010 OVC015 16/15 A2969 RMK AO1 SLP048
SPECI CYNL 061326Z AUTO 26007KT BKN010 OVC013 16/15 A2969 RMK AO1 SLP045
SPECI CYNL 061325Z AUTO 26007KT BKN009 OVC013 16/15 A2969 RMK AO1 SLP045
SPECI CYNL 061312Z AUTO 27007KT FEW009 BKN013 16/15 A2968 RMK AO1 SLP043
SPECI CYNL 061301Z AUTO 26006KT BKN014 16/15 A2968 RMK AO1 SLP044
METAR CYNL 061300Z AUTO 27005KT SCT014 BKN017 16/15 A2969 RMK AO1 SLP044
SPECI CYNL 061256Z AUTO 26007KT BKN015 16/15 A2968 RMK AO1 SLP043
METAR CYNL 061200Z AUTO 25006KT FEW100 16/14 A2969 RMK AO1 SLP043
METAR CYNL 061100Z AUTO 22006KT FEW031 SCT078 BKN092 15/14 A2970 RMK AO1 SLP048
METAR CYNL 061000Z AUTO 20007KT 15/13 A2971 RMK AO1 PRESFR SLP053
METAR CYNL 060900Z AUTO 20007KT SCT058 14/13 A2973 RMK AO1 PRESFR SLP061
SPECI CYNL 060848Z AUTO 20007KT FEW007 BKN056 BKN078 14/13 A2974 RMK AO1 SLP065
METAR CYNL 060800Z AUTO 00000KT VV035 14/13 A2979 RMK AO1 SLP081
METAR CYNL 060700Z AUTO 16003KT FEW043 BKN068 15/11 A2979 RMK AO1 PRESFR SLP081
METAR CYNL 060600Z AUTO 19005KT BKN062 16/09 A2981 RMK AO1 PRESFR SLP090
METAR CYNL 060500Z AUTO 16006KT FEW062 BKN080 16/08 A2984 RMK AO1 PRESFR SLP099
METAR CYNL 060400Z AUTO 15005KT OVC078 16/08 A2986 RMK AO1 PRESFR SLP109
METAR CYNL 060300Z AUTO 16006KT FEW066 BKN080 17/07 A2989 RMK AO1 SLP118
METAR CYNL 060200Z AUTO 18003KT SCT078 18/06 A2990 RMK AO1 SLP123
METAR CYNL 060100Z AUTO 21004KT FEW100 19/03 A2992 RMK AO1 SLP127
METAR CYNL 060000Z AUTO 22006KT CLR 19/02 A2993 RMK AO1 SLP134
METAR CYNL 052300Z AUTO 19006KT CLR 18/02 A2995 RMK AO1 SLP143
METAR CYNL 052200Z AUTO 24006KT CLR 19/02 A2996 RMK AO1 PRESFR SLP150
METAR CYNL 052100Z AUTO 22007KT CLR 18/02 A2998 RMK AO1 SLP157
METAR CYNL 052000Z AUTO 24004KT CLR 17/03 A3000 RMK AO1 SLP163
METAR CYNL 051900Z AUTO 25004KT CLR 16/02 A3001 RMK AO1 SLP169
METAR CYNL 051800Z AUTO 19008KT CLR 15/03 A3003 RMK AO1 SLP175
METAR CYNL 051700Z AUTO 20005KT CLR 14/03 A3004 RMK AO1 SLP180
METAR CYNL 051600Z AUTO 17003KT FEW034 13/03 A3005 RMK AO1 SLP182
METAR CYNL 051500Z AUTO 00000KT CLR 12/04 A3006 RMK AO1 SLP184
METAR CYNL 051400Z AUTO 00000KT SCT025 11/04 A3006 RMK AO1 SLP183
METAR CYNL 051300Z AUTO 04002KT CLR 09/04 A3005 RMK AO1 SLP181
METAR CYNL 051200Z AUTO 00000KT CLR 06/04 A3005 RMK AO1 SLP180
METAR CYNL 051100Z AUTO 00000KT CLR 03/03 A3004 RMK AO1 SLP179
METAR CYNL 051000Z AUTO 02003KT CLR 04/03 A3003 RMK AO1 SLP176
METAR CYNL 050900Z AUTO 01003KT CLR 04/03 A3002 RMK AO1 SLP172
METAR CYNL 050800Z AUTO 02003KT CLR 05/03 A3001 RMK AO1 SLP167
METAR CYNL 050700Z AUTO 02004KT CLR 06/03 A3000 RMK AO1 SLP165
METAR CYNL 050600Z AUTO 03006KT CLR 07/04 A2999 RMK AO1 SLP161
METAR CYNL 050500Z AUTO 03005KT CLR 08/04 A2998 RMK AO1 SLP157
METAR CYNL 050400Z AUTO 04007KT CLR 10/04 A2996 RMK AO1 SLP151
METAR CYNL 050300Z AUTO 03006KT CLR 11/04 A2994 RMK AO1 PRESRR SLP143
METAR CYNL 050200Z AUTO 02011KT CLR 14/03 A2992 RMK AO1 PRESRR SLP131
METAR CYNL 050100Z AUTO 02010KT CLR 15/03 A2989 RMK AO1 SLP122
METAR CYNL 050000Z AUTO 02011KT CLR 15/03 A2988 RMK AO1 SLP115
SPECI CYNL 042325Z AUTO 03014G19KT CLR 16/02 A2987 RMK AO1 WSHFT (23)25 SLP110
METAR CYNL 042300Z AUTO 02012G20KT CLR 16/03 A2986 RMK AO1 SLP106
METAR CYNL 042200Z AUTO 35012G19KT CLR 16/04 A2985 RMK AO1 PRESRR SLP101
SPECI CYNL 042136Z AUTO 02011G20KT CLR 16/04 A2984 RMK AO1 WSHFT (21)36 SLP099
SPECI CYNL 042107Z AUTO 03012G21KT FEW040 16/05 A2983 RMK AO1 WSHFT (21)07 SLP095
METAR CYNL 042100Z AUTO 35014G19KT FEW040 16/05 A2982 RMK AO1 SLP094
METAR CYNL 042000Z AUTO 35012G20KT BKN031 15/06 A2981 RMK AO1 SLP088
SPECI CYNL 041948Z AUTO 35009G17KT BKN030 15/06 A2980 RMK AO1 SLP089
SPECI CYNL 041945Z AUTO 35012G19KT BKN029 14/06 A2980 RMK AO1 SLP089
SPECI CYNL 041944Z AUTO 35010G19KT OVC030 14/07 A2980 RMK AO1 SLP089
SPECI CYNL 041938Z AUTO 00012G20KT BKN029 14/07 A2980 RMK AO1 SLP087
SPECI CYNL 041904Z AUTO 01012G18KT BKN030 14/06 A2979 RMK AO1 SLP086
METAR CYNL 041900Z AUTO 00011G21KT BKN029 14/06 A2979 RMK AO1 SLP086
SPECI CYNL 041858Z AUTO 00012G21KT BKN028 14/07 A2979 RMK AO1 SLP084
SPECI CYNL 041857Z AUTO 00012G21KT SCT028 BKN032 14/07 A2979 RMK AO1 PRESRR SLP084
SPECI CYNL 041850Z AUTO 00011G18KT BKN029 14/07 A2979 RMK AO1 PRESRR SLP082
SPECI CYNL 041839Z AUTO 02013G19KT SCT026 BKN240 14/07 A2978 RMK AO1 PRESRR SLP081
SPECI CYNL 041830Z AUTO 01012G21KT BKN025 13/08 A2979 RMK AO1 PRESRR SLP083
SPECI CYNL 041827Z AUTO 01014G21KT SCT025 BKN031 14/08 A2979 RMK AO1 PRESRR SLP082
SPECI CYNL 041824Z AUTO 01017G23KT BKN025 14/07 A2978 RMK AO1 PRESRR SLP081
SPECI CYNL 041810Z AUTO 02014G22KT BKN024 14/07 A2978 RMK AO1 PRESRR SLP080
SPECI CYNL 041806Z AUTO 02012G22KT FEW018 SCT023 13/08 A2978 RMK AO1 PRESRR SLP081
SPECI CYNL 041803Z AUTO 02017KT FEW013 SCT022 BKN029 13/08 A2978 RMK AO1 PRESRR SLP080
METAR CYNL 041800Z AUTO 01014G21KT FEW013 BKN023 13/08 A2978 RMK AO1 PRESRR SLP079
SPECI CYNL 041743Z AUTO 01013G19KT FEW008 SCT012 BKN015 12/08 A2977 RMK AO1 PRESRR SLP078
SPECI CYNL 041727Z AUTO 02009G18KT SCT008 OVC011 12/09 A2976 RMK AO1 PRESRR SLP076
SPECI CYNL 041710Z AUTO 00011G17KT BKN007 BKN011 OVC015 11/09 A2976 RMK AO1 PRESRR SLP075
SPECI CYNL 041707Z AUTO 01011G17KT SCT007 BKN010 BKN012 11/09 A2976 RMK AO1 PRESRR SLP075
SPECI CYNL 041705Z AUTO 01011G17KT FEW007 BKN009 BKN012 11/09 A2976 RMK AO1 PRESRR SLP075
METAR CYNL 041700Z AUTO 02011KT FEW006 BKN010 OVC016 11/09 A2975 RMK AO1 PRESRR SLP073
SPECI CYNL 041659Z AUTO 02011G16KT FEW006 BKN010 OVC016 11/09 A2975 RMK AO1 PRESRR SLP072
SPECI CYNL 041658Z AUTO 03010G16KT FEW007 BKN009 BKN012 11/09 A2975 RMK AO1 PRESRR SLP071
SPECI CYNL 041646Z AUTO 01011G17KT SCT007 BKN010 OVC029 11/09 A2975 RMK AO1 PRESRR SLP070
METAR CYNL 041600Z AUTO 00010G16KT BKN005 BKN007 OVC010 11/10 A2973 RMK AO1 PRESRR SLP063
SPECI CYNL 041534Z AUTO 01010G16KT SCT005 BKN008 BKN011 12/10 A2971 RMK AO1 PRESRR SLP058
SPECI CYNL 041533Z AUTO 01010G16KT SCT005 BKN010 OVC023 12/10 A2971 RMK AO1 PRESRR SLP058
SPECI CYNL 041521Z AUTO 00012G18KT SCT006 BKN008 OVC023 12/10 A2971 RMK AO1 PRESRR SLP056
SPECI CYNL 041516Z AUTO 01011G18KT SCT006 BKN011 OVC022 12/10 A2971 RMK AO1 PRESRR SLP055
METAR CYNL 041500Z AUTO 00012G18KT SCT006 BKN009 BKN015 12/11 A2970 RMK AO1 PRESRR SLP054
METAR CYNL 041400Z AUTO 00016G21KT BKN006 OVC008 13/11 A2967 RMK AO1 PRESRR SLP037
METAR CYNL 041300Z AUTO 00014G21KT OVC005 13/12 A2965 RMK AO1 PRESRR SLP028
METAR CYNL 041200Z AUTO 35012KT OVC009 16/14 A2962 RMK AO1 PRESRR SLP013
SPECI CYNL 041129Z AUTO 35008KT BKN009 16/14 A2960 RMK AO1 SLP007
SPECI CYNL 041119Z AUTO 35009G17KT FEW009 SCT078 16/13 A2960 RMK AO1 SLP006
METAR CYNL 041100Z AUTO 00009KT CLR 16/13 A2959 RMK AO1 SLP001
METAR CYNL 041000Z AUTO 33006KT FEW140 16/12 A2957 RMK AO1 SLP997
METAR CYNL 040900Z AUTO 33005KT CLR 17/13 A2957 RMK AO1 SLP995
METAR CYNL 040800Z AUTO 00000KT FEW140 15/13 A2957 RMK AO1 SLP996
METAR CYNL 040700Z AUTO 00000KT FEW074 16/13 A2958 RMK AO1 SLP998
METAR CYNL 040600Z AUTO 29003KT SCT084 17/13 A2958 RMK AO1 SLP001
METAR CYNL 040500Z AUTO 27004KT FEW200 18/13 A2958 RMK AO1 SLP997
METAR CYNL 040400Z AUTO 23004KT SCT150 18/14 A2958 RMK AO1 SLP999
METAR CYNL 040300Z AUTO 22009KT FEW060 22/13 A2959 RMK AO1 SLP001
METAR CYNL 040200Z AUTO 16007KT CLR 24/12 A2958 RMK AO1 SLP998
METAR CYNL 040100Z AUTO 13007KT CLR 26/10 A2957 RMK AO1 SLP995
METAR CYNL 040000Z AUTO 17005KT BKN070 27/10 A2958 RMK AO1 SLP998
METAR CYNL 032300Z AUTO 19005KT BKN072 26/09 A2957 RMK AO1 SLP000
METAR CYNL 032200Z AUTO 15007KT CLR 27/09 A2958 RMK AO1 SLP000
METAR CYNL 032100Z AUTO 20005KT CLR 27/09 A2960 RMK AO1 SLP007
METAR CYNL 032000Z AUTO 19009KT CLR 26/09 A2962 RMK AO1 SLP013
METAR CYNL 031900Z AUTO 22006KT FEW062 26/09 A2962 RMK AO1 SLP016
METAR CYNL 031800Z AUTO 19006KT CLR 25/09 A2963 RMK AO1 SLP021
METAR CYNL 031700Z AUTO 21006KT CLR 25/11 A2964 RMK AO1 SLP024
METAR CYNL 031600Z AUTO 18008KT CLR 23/12 A2965 RMK AO1 SLP028
METAR CYNL 031500Z AUTO 18006KT CLR 21/12 A2966 RMK AO1 SLP033
METAR CYNL 031400Z AUTO 18007KT CLR 19/11 A2966 RMK AO1 SLP031
METAR CYNL 031300Z AUTO 18006KT CLR 16/10 A2967 RMK AO1 SLP036
METAR CYNL 031200Z AUTO 19003KT CLR 14/10 A2968 RMK AO1 SLP037
METAR CYNL 031100Z AUTO 18004KT FEW084 14/09 A2969 RMK AO1 SLP042
METAR CYNL 031000Z AUTO 20005KT CLR 14/09 A2970 RMK AO1 SLP044
METAR CYNL 030900Z AUTO 18003KT CLR 15/09 A2971 RMK AO1 SLP047
METAR CYNL 030800Z AUTO 18004KT CLR 15/10 A2971 RMK AO1 SLP049
METAR CYNL 030700Z AUTO 00000KT CLR 13/08 A2972 RMK AO1 SLP053
METAR CYNL 030600Z AUTO 00000KT CLR 14/08 A2972 RMK AO1 SLP056
METAR CYNL 030500Z AUTO 00000KT CLR 15/09 A2973 RMK AO1 SLP057
METAR CYNL 030400Z AUTO 00000KT CLR 16/09 A2973 RMK AO1 SLP058
METAR CYNL 030300Z AUTO 10004KT CLR 18/08 A2974 RMK AO1 SLP057
METAR CYNL 030200Z AUTO 12006KT CLR 21/09 A2973 RMK AO1 SLP054
METAR CYNL 030100Z AUTO 35005KT CLR 23/07 A2973 RMK AO1 SLP053
METAR CYNL 030000Z AUTO 29002KT CLR 24/06 A2973 RMK AO1 SLP055
METAR CYNL 022300Z AUTO 32006KT 250V040 CLR 23/06 A2974 RMK AO1 SLP059
METAR CYNL 022200Z AUTO 28006KT 240V310 CLR 23/06 A2975 RMK AO1 SLP061
METAR CYNL 022100Z AUTO 28008KT 250V320 CLR 22/06 A2975 RMK AO1 SLP062
METAR CYNL 022000Z AUTO 29008KT 250V330 CLR 22/07 A2975 RMK AO1 SLP063
METAR CYNL 021900Z AUTO 00005KT FEW052 21/08 A2975 RMK AO1 SLP063
METAR CYNL 021800Z AUTO 31010KT 260V000 FEW047 21/07 A2975 RMK AO1 SLP062
METAR CYNL 021700Z AUTO 32003KT FEW044 20/08 A2975 RMK AO1 SLP061
METAR CYNL 021600Z AUTO 00008KT 330V030 FEW042 20/10 A2974 RMK AO1 SLP061
METAR CYNL 021500Z AUTO 02008KT FEW028 18/11 A2974 RMK AO1 SLP061
METAR CYNL 021400Z AUTO 02005KT CLR 17/11 A2973 RMK AO1 SLP056
METAR CYNL 021300Z AUTO 35008KT CLR 16/12 A2971 RMK AO1 SLP049
METAR CYNL 021200Z AUTO 33004KT CLR 14/12 A2971 RMK AO1 SLP047
METAR CYNL 021100Z AUTO 29004KT CLR 14/13 A2970 RMK AO1 SLP044
METAR CYNL 021000Z AUTO 28006KT CLR 15/13 A2970 RMK AO1 SLP043
METAR CYNL 020900Z AUTO 27006KT CLR 16/13 A2969 RMK AO1 SLP041
METAR CYNL 020800Z AUTO 26005KT CLR 16/13 A2970 RMK AO1 SLP044
METAR CYNL 020700Z AUTO 24006KT CLR 17/13 A2970 RMK AO1 SLP046
METAR CYNL 020600Z AUTO 24007KT FEW130 18/13 A2971 RMK AO1 SLP048
METAR CYNL 020500Z AUTO 22005KT FEW070 SCT130 18/12 A2971 RMK AO1 SLP049
METAR CYNL 020400Z AUTO 00000KT CLR 17/12 A2971 RMK AO1 SLP051
METAR CYNL 020300Z AUTO 20003KT CLR 20/10 A2972 RMK AO1 SLP053
METAR CYNL 020200Z AUTO 00000KT CLR 23/09 A2972 RMK AO1 PRESFR SLP051
METAR CYNL 020100Z AUTO 25004KT CLR 24/07 A2975 RMK AO1 PRESFR SLP059
METAR CYNL 020000Z AUTO 29004KT CLR 24/08 A2977 RMK AO1 PRESFR SLP067
METAR CYNL 012300Z AUTO 27004KT CLR 24/07 A2979 RMK AO1 SLP077
METAR CYNL 012200Z AUTO 21004KT FEW062 23/07 A2981 RMK AO1 SLP086
METAR CYNL 012100Z AUTO 26005KT 220V300 FEW058 23/09 A2983 RMK AO1 PRESFR SLP092
METAR CYNL 012000Z AUTO 30006KT CLR 21/07 A2985 RMK AO1 SLP102
METAR CYNL 011900Z AUTO 29007KT 260V330 CLR 20/08 A2987 RMK AO1 SLP109
METAR CYNL 011800Z AUTO 30004KT CLR 19/08 A2989 RMK AO1 SLP117
METAR CYNL 011700Z AUTO 28007KT CLR 17/07 A2990 RMK AO1 SLP121
METAR CYNL 011600Z AUTO 30006KT CLR 16/08 A2991 RMK AO1 SLP125
METAR CYNL 011500Z AUTO 27007KT CLR 16/10 A2991 RMK AO1 SLP126
METAR CYNL 011400Z AUTO 25009KT FEW046 15/10 A2992 RMK AO1 SLP126
METAR CYNL 011300Z AUTO 24008KT CLR 15/11 A2993 RMK AO1 SLP131
METAR CYNL 011200Z AUTO 22005KT FEW052 13/11 A2994 RMK AO1 SLP135
METAR CYNL 011100Z AUTO 21007KT CLR 12/10 A2995 RMK AO1 PRESFR SLP139
METAR CYNL 011000Z AUTO 21005KT CLR 11/10 A2997 RMK AO1 PRESFR SLP146
METAR CYNL 010900Z AUTO 21004KT BKN058 11/09 A2999 RMK AO1 SLP156
METAR CYNL 010800Z AUTO 21005KT CLR 11/09 A3001 RMK AO1 SLP163
METAR CYNL 010700Z AUTO 22003KT CLR 11/10 A3003 RMK AO1 SLP170
METAR CYNL 010600Z AUTO 20004KT CLR 12/10 A3004 RMK AO1 SLP171
METAR CYNL 010500Z AUTO 20004KT CLR 13/10 A3005 RMK AO1 SLP175
METAR CYNL 010400Z AUTO 19005KT SCT050 14/10 A3006 RMK AO1 SLP178
METAR CYNL 010300Z AUTO 18005KT FEW066 15/10 A3007 RMK AO1 SLP181
METAR CYNL 010200Z AUTO 20008KT FEW034 17/09 A3009 RMK AO1 SLP187
METAR CYNL 010100Z AUTO 18006KT FEW037 SCT064 17/09 A3011 RMK AO1 PRESFR SLP195
METAR CYNL 010000Z AUTO 19006KT FEW040 SCT062 17/09 A3013 RMK AO1 PRESFR SLP203
METAR CYNL 312300Z AUTO 17007KT FEW033 SCT060 17/09 A3015 RMK AO1 PRESFR SLP212
METAR CYNL 312200Z AUTO 15006KT FEW032 BKN058 16/09 A3018 RMK AO1 PRESFR SLP221
METAR CYNL 312100Z AUTO 17005KT BKN052 16/08 A3020 RMK AO1 SLP228
METAR CYNL 312000Z AUTO 16003KT FEW032 BKN049 15/08 A3022 RMK AO1 SLP236
METAR CYNL 311900Z AUTO 17004KT FEW025 BKN045 14/07 A3023 RMK AO1 SLP241
METAR CYNL 311800Z AUTO 14006KT BKN046 13/07 A3024 RMK AO1 SLP245
SPECI CYNL 311705Z AUTO 16005KT SCT022 OVC041 13/08 A3025 RMK AO1 SLP248
METAR CYNL 311700Z AUTO 14005KT BKN022 OVC041 13/07 A3025 RMK AO1 SLP248
SPECI CYNL 311654Z AUTO 14005KT BKN021 BKN041 13/07 A3025 RMK AO1 SLP248
SPECI CYNL 311653Z AUTO 13005KT SCT020 BKN025 BKN041 13/08 A3025 RMK AO1 SLP248
SPECI CYNL 311649Z AUTO 14005KT BKN020 OVC041 13/08 A3025 RMK AO1 SLP248
SPECI CYNL 311645Z AUTO 13005KT SCT020 BKN025 OVC041 13/08 A3025 RMK AO1 SLP249
METAR CYNL 311600Z AUTO 12008KT FEW019 BKN041 13/08 A3025 RMK AO1 SLP250
METAR CYNL 311500Z AUTO 09006KT OVC040 12/08 A3026 RMK AO1 SLP254
METAR CYNL 311400Z AUTO 07007KT OVC039 11/08 A3026 RMK AO1 SLP255
SPECI CYNL 311304Z AUTO 04007KT SCT006 OVC040 10/09 A3025 RMK AO1 SLP253
METAR CYNL 311300Z AUTO 04006KT BKN006 OVC040 10/09 A3026 RMK AO1 SLP253
METAR CYNL 311200Z AUTO 03006KT BKN006 BKN017 OVC041 09/09 A3025 RMK AO1 SLP251
SPECI CYNL 311136Z AUTO 03005KT BKN006 OVC041 09/09 A3025 RMK AO1 SLP250
SPECI CYNL 311127Z AUTO 02004KT SCT007 BKN011 OVC041 09/09 A3025 RMK AO1 SLP251
METAR CYNL 311100Z AUTO 04004KT FEW007 SCT024 OVC042 09/09 A3025 RMK AO1 SLP250
SPECI CYNL 311052Z AUTO 05005KT SCT007 OVC043 09/09 A3025 RMK AO1 SLP250
SPECI CYNL 311011Z AUTO 09005KT 060V120 BKN007 BKN015 OVC018 09/09 A3024 RMK AO1 SLP247
METAR CYNL 311000Z AUTO 05006KT FEW009 OVC014 09/08 A3024 RMK AO1 SLP247
SPECI CYNL 310948Z AUTO 03004KT FEW008 BKN013 BKN017 09/09 A3024 RMK AO1 SLP244
SPECI CYNL 310947Z AUTO 03004KT FEW008 SCT012 BKN015 09/09 A3024 RMK AO1 SLP244
SPECI CYNL 310936Z AUTO 02005KT SCT008 BKN012 OVC043 09/08 A3024 RMK AO1 SLP243
SPECI CYNL 310928Z AUTO 03005KT BKN008 OVC043 09/08 A3023 RMK AO1 SLP243
SPECI CYNL 310927Z AUTO 03004KT SCT008 BKN015 OVC043 09/08 A3023 RMK AO1 SLP243
SPECI CYNL 310917Z AUTO 02006KT SCT008 OVC044 09/08 A3023 RMK AO1 SLP241
SPECI CYNL 310916Z AUTO 02006KT SCT008 BKN015 OVC044 09/08 A3023 RMK AO1 SLP241
SPECI CYNL 310914Z AUTO 02006KT BKN008 OVC044 09/08 A3023 RMK AO1 SLP241
SPECI CYNL 310912Z AUTO 02006KT SCT008 BKN010 OVC044 09/08 A3023 RMK AO1 SLP241
SPECI CYNL 310911Z AUTO 02006KT BKN008 OVC043 09/08 A3023 RMK AO1 SLP241
SPECI CYNL 310910Z AUTO 02006KT SCT008 BKN015 OVC043 09/08 A3023 RMK AO1 SLP241
SPECI CYNL 310906Z AUTO 02006KT BKN008 OVC043 09/08 A3023 RMK AO1 SLP241
SPECI CYNL 310903Z AUTO 02006KT SCT009 BKN015 OVC043 09/08 A3023 RMK AO1 SLP241
METAR CYNL 310900Z AUTO 03006KT FEW008 SCT010 OVC043 09/08 A3023 RMK AO1 SLP241
SPECI CYNL 310847Z AUTO 02006KT FEW008 OVC044 09/08 A3023 RMK AO1 SLP241
SPECI CYNL 310824Z AUTO 02004KT SCT022 OVC044 09/08 A3023 RMK AO1 SLP240
METAR CYNL 310800Z AUTO 04006KT FEW008 SCT012 BKN019 09/08 A3023 RMK AO1 SLP241
SPECI CYNL 310755Z AUTO 04005KT FEW009 SCT013 BKN016 09/08 A3023 RMK AO1 SLP240
SPECI CYNL 310750Z AUTO 04007KT FEW010 SCT013 BKN017 09/08 A3023 RMK AO1 SLP239
SPECI CYNL 310741Z AUTO 04006KT FEW008 SCT010 BKN013 09/08 A3022 RMK AO1 SLP239
SPECI CYNL 310738Z AUTO 03005KT FEW008 SCT011 OVC017 09/08 A3022 RMK AO1 SLP238
SPECI CYNL 310704Z AUTO 02006KT BKN019 OVC048 09/08 A3022 RMK AO1 SLP238
METAR CYNL 310700Z AUTO 03006KT SCT020 OVC048 09/08 A3022 RMK AO1 SLP238
METAR CYNL 310600Z AUTO 05006KT OVC048 09/08 A3021 RMK AO1 SLP234
METAR CYNL 310500Z AUTO 03007KT BKN048 09/08 A3020 RMK AO1 SLP230
SPECI CYNL 310427Z AUTO 03009KT SCT029 OVC045 10/08 A3019 RMK AO1 SLP226
METAR CYNL 310400Z AUTO 04009G15KT OVC026 10/08 A3018 RMK AO1 SLP223
SPECI CYNL 310350Z AUTO 03008KT OVC025 10/09 A3018 RMK AO1 PRESRR SLP223
SPECI CYNL 310338Z AUTO 04007KT FEW009 SCT019 BKN024 10/08 A3018 RMK AO1 PRESRR SLP222
SPECI CYNL 310334Z AUTO 04009KT FEW009 SCT018 OVC025 09/08 A3018 RMK AO1 PRESRR SLP222
SPECI CYNL 310331Z AUTO 05008KT FEW009 SCT018 OVC024 09/08 A3018 RMK AO1 PRESRR SLP222
SPECI CYNL 310330Z AUTO 05008KT FEW009 SCT018 OVC025 09/08 A3018 RMK AO1 PRESRR SLP222
SPECI CYNL 310319Z AUTO 04009KT SCT009 BKN015 OVC018 10/08 A3018 RMK AO1 PRESRR SLP221
SPECI CYNL 310316Z AUTO 03010KT SCT008 BKN014 OVC018 10/08 A3018 RMK AO1 PRESRR SLP221
SPECI CYNL 310313Z AUTO 04010G15KT FEW007 SCT010 OVC018 10/08 A3018 RMK AO1 PRESRR SLP221
METAR CYNL 310300Z AUTO 04010KT SCT008 OVC014 10/09 A3017 RMK AO1 PRESRR SLP219
SPECI CYNL 310202Z AUTO 03011G17KT FEW006 OVC010 10/08 A3015 RMK AO1 PRESRR SLP213
METAR CYNL 310200Z AUTO 03012G17KT SCT006 BKN009 OVC011 10/08 A3015 RMK AO1 PRESRR SLP212
METAR CYNL 310100Z AUTO 03013KT OVC007 11/10 A3013 RMK AO1 PRESRR SLP204
SPECI CYNL 310040Z AUTO 03012KT BKN008 BKN010 11/10 A3012 RMK AO1 SLP202
SPECI CYNL 310033Z AUTO 04008G17KT FEW008 BKN010 BKN018 11/10 A3012 RMK AO1 SLP201
SPECI CYNL 310031Z AUTO 04010G17KT BKN009 BKN018 11/10 A3012 RMK AO1 SLP201
SPECI CYNL 310028Z AUTO 04011G17KT BKN010 11/10 A3011 RMK AO1 SLP201
SPECI CYNL 310026Z AUTO 04011G17KT BKN009 11/10 A3011 RMK AO1 SLP200
SPECI CYNL 310020Z AUTO 04012KT SCT009 BKN012 11/10 A3011 RMK AO1 SLP198
SPECI CYNL 310018Z AUTO 05013KT SCT009 BKN018 11/10 A3011 RMK AO1 SLP198
SPECI CYNL 310016Z AUTO 05010G16KT SCT009 BKN012 11/10 A3011 RMK AO1 SLP198
SPECI CYNL 310013Z AUTO 05011G17KT BKN009 11/10 A3011 RMK AO1 SLP197
SPECI CYNL 310010Z AUTO 05011G17KT SCT009 BKN011 BKN046 12/10 A3011 RMK AO1 SLP197
SPECI CYNL 310006Z AUTO 04011G17KT BKN008 BKN046 12/11 A3010 RMK AO1 SLP197
SPECI CYNL 310003Z AUTO 04013KT SCT008 BKN011 BKN046 12/10 A3010 RMK AO1 SLP197
METAR CYNL 310000Z AUTO 05012KT BKN008 BKN046 12/10 A3010 RMK AO1 SLP197
SPECI CYNL 302356Z AUTO 05010KT BKN008 12/11 A3011 RMK AO1 PRESRR SLP198
SPECI CYNL 302349Z AUTO 04010G18KT SCT008 BKN011 12/11 A3011 RMK AO1 PRESRR SLP198
SPECI CYNL 302340Z AUTO 05011G18KT BKN008 12/11 A3011 RMK AO1 PRESRR SLP198
SPECI CYNL 302333Z AUTO 05011G17KT SCT008 BKN011 12/11 A3010 RMK AO1 PRESRR SLP197
SPECI CYNL 302332Z AUTO 05010G17KT BKN009 12/11 A3010 RMK AO1 PRESRR SLP197
SPECI CYNL 302330Z AUTO 04013KT SCT009 BKN016 12/11 A3010 RMK AO1 PRESRR SLP197
SPECI CYNL 302329Z AUTO 04012KT BKN009 12/11 A3010 RMK AO1 PRESRR SLP197
SPECI CYNL 302328Z AUTO 04010G17KT SCT009 BKN021 12/11 A3010 RMK AO1 PRESRR SLP197
SPECI CYNL 302326Z AUTO 04010KT BKN009 12/11 A3010 RMK AO1 PRESRR SLP197
SPECI CYNL 302318Z AUTO 03009G19KT SCT009 BKN021 12/11 A3010 RMK AO1 PRESRR SLP197
SPECI CYNL 302314Z AUTO 03013G19KT FEW009 SCT020 BKN190 12/11 A3010 RMK AO1 PRESRR SLP196
METAR CYNL 302300Z AUTO 03015G22KT FEW008 SCT015 BKN023 12/11 A3010 RMK AO1 PRESRR SLP198
SPECI CYNL 302254Z AUTO 02013KT FEW009 SCT017 OVC023 12/11 A3010 RMK AO1 SLP198
SPECI CYNL 302231Z AUTO 02016G24KT VV022 12/11 A3010 RMK AO1 SLP195
SPECI CYNL 302230Z AUTO 02018G24KT SCT007 BKN013 OVC022 12/11 A3010 RMK AO1 SLP195
METAR CYNL 302200Z AUTO 01013G20KT SCT005 BKN009 BKN016 13/12 A3008 RMK AO1 SLP189
SPECI CYNL 302159Z AUTO 00010G15KT SCT006 BKN009 OVC018 13/13 A3008 RMK AO1 SLP188
SPECI CYNL 302150Z AUTO 01009KT SCT006 BKN012 OVC026 13/13 A3008 RMK AO1 PRESRR SLP186
SPECI CYNL 302141Z AUTO 04007KT FEW006 BKN015 BKN025 13/12 A3007 RMK AO1 PRESRR SLP185
SPECI CYNL 302137Z AUTO 04005KT FEW005 SCT015 BKN025 13/12 A3007 RMK AO1 PRESRR SLP185
SPECI CYNL 302131Z AUTO 04006KT FEW020 BKN026 OVC033 13/12 A3007 RMK AO1 PRESRR SLP185
SPECI CYNL 302127Z AUTO 04007KT FEW013 SCT024 OVC032 13/12 A3007 RMK AO1 PRESRR SLP185
SPECI CYNL 302125Z AUTO 05007KT VV023 13/12 A3007 RMK AO1 PRESRR SLP185
SPECI CYNL 302121Z AUTO 05008KT VV029 13/12 A3007 RMK AO1 PRESRR SLP185
SPECI CYNL 302118Z AUTO 05008KT VV030 13/12 A3007 RMK AO1 PRESRR SLP184
SPECI CYNL 302113Z AUTO 05009KT VV029 13/12 A3007 RMK AO1 PRESRR SLP184
SPECI CYNL 302105Z AUTO 03008KT VV031 13/12 A3007 RMK AO1 PRESRR SLP184
SPECI CYNL 302102Z AUTO 03009KT FEW005 SCT013 BKN018 13/12 A3007 RMK AO1 PRESRR SLP184
METAR CYNL 302100Z AUTO 03008KT SCT004 BKN013 OVC030 13/12 A3007 RMK AO1 PRESRR SLP184
SPECI CYNL 302047Z AUTO 04008KT FEW002 SCT006 BKN013 13/12 A3006 RMK AO1 SLP181
SPECI CYNL 302046Z AUTO 04007KT FEW002 SCT006 BKN021 13/12 A3006 RMK AO1 SLP181
SPECI CYNL 302040Z AUTO 05009KT VV025 13/12 A3006 RMK AO1 SLP180
SPECI CYNL 302037Z AUTO 05011KT SCT002 BKN016 OVC024 13/12 A3006 RMK AO1 SLP180
SPECI CYNL 302035Z AUTO 05008KT SCT002 BKN010 OVC016 13/12 A3006 RMK AO1 SLP180
SPECI CYNL 302024Z AUTO 07005KT 030V100 SCT004 BKN008 OVC016 13/13 A3006 RMK AO1 SLP179
SPECI CYNL 302009Z AUTO 09003KT SCT005 BKN015 BKN018 14/13 A3005 RMK AO1 SLP177
METAR CYNL 302000Z AUTO 12004KT SCT004 BKN006 BKN025 14/13 A3005 RMK AO1 SLP176
SPECI CYNL 301955Z AUTO 11003KT FEW002 BKN006 BKN025 14/13 A3005 RMK AO1 SLP175
SPECI CYNL 301954Z AUTO 10003KT FEW002 SCT006 BKN010 14/13 A3005 RMK AO1 SLP175
SPECI CYNL 301953Z AUTO 10002KT FEW002 BKN006 BKN025 14/13 A3005 RMK AO1 SLP175
SPECI CYNL 301952Z AUTO 10003KT FEW002 SCT006 BKN011 14/13 A3005 RMK AO1 SLP175
SPECI CYNL 301949Z AUTO 09003KT FEW002 SCT007 BKN015 14/13 A3005 RMK AO1 SLP175
SPECI CYNL 301946Z AUTO 09005KT FEW002 BKN007 OVC028 14/13 A3004 RMK AO1 SLP174
SPECI CYNL 301945Z AUTO 10004KT FEW002 SCT007 BKN019 14/13 A3004 RMK AO1 SLP174
SPECI CYNL 301944Z AUTO 10004KT FEW002 SCT006 BKN025 14/13 A3004 RMK AO1 SLP174
SPECI CYNL 301943Z AUTO 11005KT FEW002 SCT006 BKN023 14/13 A3004 RMK AO1 SLP174
SPECI CYNL 301941Z AUTO 12005KT SCT002 BKN006 OVC034 14/13 A3004 RMK AO1 SLP174
SPECI CYNL 301940Z AUTO 12006KT VV026 14/13 A3004 RMK AO1 SLP174
SPECI CYNL 301939Z AUTO 13006KT SCT002 BKN019 OVC034 14/13 A3004 RMK AO1 SLP174
SPECI CYNL 301938Z AUTO 13005KT SCT002 BKN006 BKN025 14/13 A3004 RMK AO1 SLP174
SPECI CYNL 301934Z AUTO 14008KT SCT002 BKN019 BKN026 14/13 A3004 RMK AO1 SLP174
SPECI CYNL 301927Z AUTO 13004KT BKN002 BKN028 OVC035 14/13 A3004 RMK AO1 SLP174
SPECI CYNL 301925Z AUTO 13004KT SCT002 BKN020 OVC034 14/13 A3005 RMK AO1 SLP174
SPECI CYNL 301918Z AUTO 10002KT SCT002 BKN025 OVC034 14/13 A3004 RMK AO1 SLP174
SPECI CYNL 301903Z AUTO 11008KT FEW002 SCT021 OVC033 14/13 A3004 RMK AO1 SLP172
METAR CYNL 301900Z AUTO 10008KT VV034 14/13 A3004 RMK AO1 SLP172
SPECI CYNL 301851Z AUTO 09006KT VV030 14/13 A3004 RMK AO1 SLP171
SPECI CYNL 301848Z AUTO 09005KT VV029 14/13 A3004 RMK AO1 SLP172
SPECI CYNL 301845Z AUTO 10006KT FEW002 BKN023 OVC033 14/13 A3004 RMK AO1 SLP172
SPECI CYNL 301844Z AUTO 10007KT FEW002 SCT022 BKN027 14/13 A3004 RMK AO1 SLP172
METAR CYNL 301800Z AUTO 13003KT FEW008 BKN052 15/13 A3004 RMK AO1 SLP170
SPECI CYNL 301739Z AUTO 16005KT SCT018 BKN034 BKN054 15/12 A3004 RMK AO1 SLP171
SPECI CYNL 301734Z AUTO 17006KT SCT017 BKN028 BKN043 15/13 A3004 RMK AO1 SLP171
SPECI CYNL 301732Z AUTO 16006KT VV030 15/13 A3004 RMK AO1 SLP171
SPECI CYNL 301712Z AUTO 18006KT FEW010 SCT019 BKN025 15/12 A3004 RMK AO1 SLP170
SPECI CYNL 301707Z AUTO 18006KT VV024 15/12 A3004 RMK AO1 SLP170
SPECI CYNL 301706Z AUTO 19005KT VV027 16/12 A3004 RMK AO1 SLP171
SPECI CYNL 301703Z AUTO 18005KT VV034 16/12 A3004 RMK AO1 SLP171
METAR CYNL 301700Z AUTO 16005KT SCT020 BKN028 BKN037 16/11 A3004 RMK AO1 SLP171
SPECI CYNL 301656Z AUTO 17006KT SCT020 BKN028 OVC041 16/11 A3004 RMK AO1 SLP171
SPECI CYNL 301639Z AUTO 16007KT BKN019 BKN200 16/11 A3004 RMK AO1 SLP170
METAR CYNL 301600Z AUTO 15009KT SCT017 BKN056 16/11 A3004 RMK AO1 SLP170
SPECI CYNL 301547Z AUTO 16006KT SCT015 BKN058 16/11 A3005 RMK AO1 SLP171
SPECI CYNL 301531Z AUTO 16007KT BKN015 15/11 A3005 RMK AO1 SLP171
METAR CYNL 301500Z AUTO 13007KT BKN012 15/12 A3005 RMK AO1 SLP172
SPECI CYNL 301430Z AUTO 11006KT BKN010 15/12 A3005 RMK AO1 SLP173
METAR CYNL 301400Z AUTO 10005KT OVC008 14/12 A3005 RMK AO1 SLP175
SPECI CYNL 301327Z AUTO 09006KT BKN007 13/12 A3005 RMK AO1 SLP174
SPECI CYNL 301314Z AUTO 09006KT FEW006 SCT070 BKN120 13/12 A3005 RMK AO1 SLP174
METAR CYNL 301300Z AUTO 10005KT BKN070 13/12 A3005 RMK AO1 SLP174
METAR CYNL 301200Z AUTO 07004KT OVC072 12/11 A3007 RMK AO1 SLP180
METAR CYNL 301100Z AUTO 08004KT FEW060 SCT160 12/11 A3008 RMK AO1 SLP182
METAR CYNL 301000Z AUTO 09004KT FEW044 SCT058 BKN066 12/11 A3009 RMK AO1 SLP184
METAR CYNL 300900Z AUTO 09005KT SCT170 13/11 A3009 RMK AO1 SLP184
METAR CYNL 300800Z AUTO 07005KT BKN049 13/12 A3010 RMK AO1 SLP188
METAR CYNL 300700Z AUTO 05004KT FEW048 SCT066 13/11 A3011 RMK AO1 SLP190
METAR CYNL 300600Z AUTO 04005KT 13/11 A3011 RMK AO1 SLP190
METAR CYNL 300400Z AUTO 10004KT FEW042 SCT074 14/11 A3010 RMK AO1 SLP185
METAR CYNL 300300Z AUTO 08005KT SCT050 15/10 A3009 RMK AO1 SLP183
METAR CYNL 300200Z AUTO 07007KT FEW044 SCT054 16/10 A3008 RMK AO1 SLP179
METAR CYNL 300100Z AUTO 08007KT FEW032 BKN044 17/11 A3008 RMK AO1 SLP178
METAR CYNL 300000Z AUTO 08008KT FEW068 18/11 A3007 RMK AO1 SLP174
METAR CYNL 292300Z AUTO 07007KT FEW033 19/11 A3007 RMK AO1 SLP174
METAR CYNL 292200Z AUTO 08011KT SCT032 19/11 A3006 RMK AO1 SLP170
SPECI CYNL 292117Z AUTO 05011KT 020V080 SCT030 19/12 A3006 RMK AO1 WSHFT (21)17 SLP169
SPECI CYNL 292105Z AUTO 04008KT BKN030 19/12 A3006 RMK AO1 SLP168
SPECI CYNL 292104Z AUTO 04008G15KT BKN029 19/12 A3006 RMK AO1 SLP168
SPECI CYNL 292101Z AUTO 06008G15KT SCT029 BKN035 19/12 A3006 RMK AO1 SLP168
METAR CYNL 292100Z AUTO 04009G15KT BKN029 19/12 A3005 RMK AO1 SLP168
METAR CYNL 292000Z AUTO 04010KT FEW024 SCT039 BKN072 19/13 A3004 RMK AO1 PRESRR SLP164
SPECI CYNL 291943Z AUTO 01008G15KT SCT027 BKN039 BKN200 19/14 A3004 RMK AO1 PRESRR SLP160
SPECI CYNL 291940Z AUTO 00010G15KT BKN026 19/13 A3004 RMK AO1 PRESRR SLP160
METAR CYNL 291900Z AUTO 02012KT SCT032 BKN160 19/14 A3002 RMK AO1 PRESRR SLP155
METAR CYNL 291800Z AUTO 28005KT FEW031 21/13 A3000 RMK AO1 SLP145
METAR CYNL 291700Z AUTO 01009KT FEW023 SCT044 20/14 A3000 RMK AO1 SLP146
SPECI CYNL 291639Z AUTO 33007KT SCT015 BKN043 19/14 A3000 RMK AO1 SLP148
METAR CYNL 291600Z AUTO 34007KT BKN016 20/15 A3000 RMK AO1 SLP146
SPECI CYNL 291534Z AUTO 35007KT SCT011 OVC016 18/15 A3000 RMK AO1 SLP148
METAR CYNL 291500Z AUTO 35009KT OVC013 18/15 A2999 RMK AO1 SLP146
SPECI CYNL 291454Z AUTO 34008KT OVC013 18/15 A2999 RMK AO1 SLP146
SPECI CYNL 291450Z AUTO 33007KT SCT011 OVC015 18/15 A2999 RMK AO1 SLP145
SPECI CYNL 291434Z AUTO 32008KT BKN010 OVC013 18/15 A2999 RMK AO1 SLP146
SPECI CYNL 291410Z AUTO 32007KT BKN008 18/16 A2999 RMK AO1 SLP144
METAR CYNL 291400Z AUTO 33005KT FEW008 18/16 A2998 RMK AO1 SLP143
SPECI CYNL 291331Z AUTO 31006KT FEW008 17/16 A2998 RMK AO1 SLP141
METAR CYNL 291300Z AUTO 32006KT FEW120 18/16 A2997 RMK AO1 SLP138
METAR CYNL 291200Z AUTO 29004KT FEW140 17/15 A2996 RMK AO1 SLP128
METAR CYNL 291100Z AUTO 26002KT FEW100 17/15 A2995 RMK AO1 SLP123
METAR CYNL 291000Z AUTO 29005KT FEW096 17/15 A2995 RMK AO1 SLP123
SPECI CYNL 290927Z AUTO 30005KT FEW008 17/15 A2994 RMK AO1 SLP121
METAR CYNL 290900Z AUTO 32004KT FEW012 SCT056 17/15 A2993 RMK AO1 SLP116
SPECI CYNL 290807Z AUTO 33006KT FEW006 BKN060 19/15 A2993 RMK AO1 PRESRR SLP115
METAR CYNL 290800Z AUTO 30006KT SCT060 BKN120 19/14 A2994 RMK AO1 PRESRR SLP119
METAR CYNL 290700Z AUTO 24004KT SCT130 19/14 A2991 RMK AO1 SLP109
METAR CYNL 290600Z AUTO 28005KT SCT110 20/14 A2992 RMK AO1 SLP110
METAR CYNL 290500Z AUTO 28004KT SCT094 20/14 A2990 RMK AO1 SLP106
METAR CYNL 290400Z AUTO 22005KT FEW092 20/14 A2989 RMK AO1 SLP104
METAR CYNL 290300Z AUTO 21005KT FEW180 19/16 A2991 RMK AO1 PRESFR SLP112
METAR CYNL 290200Z AUTO 19002KT FEW013 BKN076 19/15 A2993 RMK AO1 PRESRR SLP122
METAR CYNL 290100Z AUTO 23006KT FEW110 25/11 A2992 RMK AO1 SLP112
METAR CYNL 290000Z AUTO 22007KT CLR 28/09 A2992 RMK AO1 SLP113
METAR CYNL 282300Z AUTO 23010G18KT CLR 28/09 A2994 RMK AO1 SLP121
METAR CYNL 282200Z AUTO 26009G16KT CLR 28/08 A2996 RMK AO1 SLP127
SPECI CYNL 282142Z AUTO 25011G17KT FEW078 28/08 A2996 RMK AO1 WSHFT (21)42 SLP129
SPECI CYNL 282139Z AUTO 20011G16KT FEW078 28/08 A2996 RMK AO1 WSHFT (21)39 SLP128
METAR CYNL 282100Z AUTO 24010G17KT CLR 28/08 A2997 RMK AO1 SLP131
SPECI CYNL 282033Z AUTO 24013G19KT CLR 28/08 A2997 RMK AO1 WSHFT (20)33 SLP131
METAR CYNL 282000Z AUTO 21012G19KT CLR 28/07 A2997 RMK AO1 SLP134
SPECI CYNL 281912Z AUTO 24010G17KT CLR 27/06 A2998 RMK AO1 WSHFT (19)12 SLP136
SPECI CYNL 281908Z AUTO 18011G18KT CLR 27/07 A2998 RMK AO1 WSHFT (19)08 SLP136
METAR CYNL 281900Z AUTO 23011G18KT CLR 27/07 A2999 RMK AO1 SLP138
METAR CYNL 281800Z AUTO 22011KT CLR 26/08 A3000 RMK AO1 SLP143
METAR CYNL 281700Z AUTO 25009KT CLR 25/10 A3000 RMK AO1 SLP146
METAR CYNL 281600Z AUTO 23007KT CLR 23/12 A3002 RMK AO1 SLP151
METAR CYNL 281500Z AUTO 23004KT CLR 21/12 A3002 RMK AO1 SLP153
METAR CYNL 281400Z AUTO 23005KT CLR 20/12 A3003 RMK AO1 SLP153
METAR CYNL 281300Z AUTO 23004KT CLR 18/12 A3003 RMK AO1 SLP154
METAR CYNL 281200Z AUTO 22003KT CLR 16/12 A3003 RMK AO1 SLP155
METAR CYNL 281100Z AUTO 22004KT CLR 15/11 A3004 RMK AO1 SLP156
METAR CYNL 281000Z AUTO 22004KT CLR 15/11 A3004 RMK AO1 SLP157
METAR CYNL 280900Z AUTO 23004KT SCT088 15/12 A3004 RMK AO1 SLP159
METAR CYNL 280800Z AUTO 24004KT FEW086 15/11 A3004 RMK AO1 SLP159
METAR CYNL 280700Z AUTO 25003KT CLR 15/11 A3005 RMK AO1 SLP161
METAR CYNL 280600Z AUTO 24004KT CLR 16/11 A3005 RMK AO1 SLP162
METAR CYNL 280500Z AUTO 24004KT CLR 17/10 A3006 RMK AO1 SLP163
METAR CYNL 280400Z AUTO 22003KT CLR 19/10 A3006 RMK AO1 SLP162
METAR CYNL 280300Z AUTO 22004KT CLR 23/06 A3006 RMK AO1 SLP159
METAR CYNL 280200Z AUTO 22004KT CLR 25/03 A3006 RMK AO1 SLP160
METAR CYNL 280100Z AUTO 22006KT CLR 26/04 A3007 RMK AO1 SLP165
METAR CYNL 280000Z AUTO 21009KT FEW084 26/05 A3008 RMK AO1 SLP172
METAR CYNL 272300Z AUTO 23006KT 27/06 A3009 RMK AO1 SLP178
METAR CYNL 272200Z AUTO 28004KT SCT078 25/07 A3010 RMK AO1 SLP184
METAR CYNL 272100Z AUTO 27006KT 240V300 SCT074 27/07 A3012 RMK AO1 SLP187
METAR CYNL 272000Z AUTO 27004KT FEW210 26/08 A3012 RMK AO1 SLP191
METAR CYNL 271900Z AUTO 30006KT FEW068 25/08 A3013 RMK AO1 SLP194
METAR CYNL 271800Z AUTO 31006KT BKN070 25/07 A3014 RMK AO1 SLP196
METAR CYNL 271700Z AUTO 28005KT 250V310 CLR 25/06 A3015 RMK AO1 SLP197
METAR CYNL 271600Z AUTO 23005KT CLR 24/08 A3015 RMK AO1 SLP198
METAR CYNL 271500Z AUTO 22005KT CLR 22/12 A3015 RMK AO1 SLP200
METAR CYNL 271400Z AUTO 22004KT CLR 19/12 A3015 RMK AO1 SLP197
METAR CYNL 271300Z AUTO 23003KT CLR 16/12 A3016 RMK AO1 SLP200
METAR CYNL 271200Z AUTO 25004KT CLR 13/13 A3017 RMK AO1 SLP204
METAR CYNL 271100Z AUTO 25004KT CLR 12/11 A3017 RMK AO1 SLP206
METAR CYNL 271000Z AUTO 25004KT CLR 11/10 A3016 RMK AO1 SLP204
METAR CYNL 270900Z AUTO 25003KT CLR 11/10 A3016 RMK AO1 SLP206
METAR CYNL 270800Z AUTO 00000KT CLR 12/10 A3017 RMK AO1 SLP207
METAR CYNL 270700Z AUTO 27003KT CLR 12/10 A3018 RMK AO1 SLP209
METAR CYNL 270600Z AUTO 00000KT CLR 13/10 A3018 RMK AO1 SLP209
METAR CYNL 270500Z AUTO 00000KT CLR 14/10 A3018 RMK AO1 SLP209
METAR CYNL 270400Z AUTO 26002KT CLR 16/09 A3017 RMK AO1 SLP206
METAR CYNL 270300Z AUTO 00000KT CLR 22/10 A3017 RMK AO1 SLP200
METAR CYNL 270200Z AUTO 29003KT CLR 24/05 A3017 RMK AO1 SLP198
METAR CYNL 270100Z AUTO 29005KT CLR 25/06 A3017 RMK AO1 SLP201
METAR CYNL 270000Z AUTO 30005KT CLR 25/07 A3018 RMK AO1 SLP207
METAR CYNL 262300Z AUTO 29003KT FEW072 25/06 A3019 RMK AO1 SLP212
METAR CYNL 262200Z AUTO 29004KT FEW072 24/06 A3019 RMK AO1 SLP216
METAR CYNL 262100Z AUTO 30006KT 230V020 CLR 24/06 A3020 RMK AO1 SLP218
METAR CYNL 262000Z AUTO 30005KT 260V340 CLR 24/06 A3021 RMK AO1 SLP220
METAR CYNL 261900Z AUTO 27006KT FEW066 23/06 A3021 RMK AO1 SLP222
METAR CYNL 261800Z AUTO 34008KT 290V030 CLR 23/07 A3022 RMK AO1 SLP224
METAR CYNL 261700Z AUTO 32008KT 270V000 CLR 22/08 A3023 RMK AO1 SLP226
METAR CYNL 261600Z AUTO 30007KT 270V330 CLR 22/08 A3023 RMK AO1 SLP227
METAR CYNL 261500Z AUTO 32003KT CLR 21/08 A3023 RMK AO1 SLP228
METAR CYNL 261400Z AUTO 28002KT CLR 19/09 A3023 RMK AO1 SLP226
METAR CYNL 261300Z AUTO 00000KT CLR 15/11 A3023 RMK AO1 SLP228
METAR CYNL 261200Z AUTO 24003KT CLR 12/10 A3023 RMK AO1 SLP230
METAR CYNL 261100Z AUTO 24003KT CLR 10/09 A3022 RMK AO1 SLP229
METAR CYNL 261000Z AUTO 00000KT CLR 11/09 A3023 RMK AO1 SLP229
METAR CYNL 260900Z AUTO 00000KT CLR 11/09 A3022 RMK AO1 SLP229
METAR CYNL 260800Z AUTO 32004KT CLR 12/08 A3022 RMK AO1 SLP229
METAR CYNL 260700Z AUTO 31005KT CLR 13/08 A3022 RMK AO1 SLP227
METAR CYNL 260600Z AUTO 31006KT CLR 14/09 A3023 RMK AO1 SLP228
METAR CYNL 260500Z AUTO 31005KT CLR 14/09 A3022 RMK AO1 SLP228
METAR CYNL 260400Z AUTO 30004KT CLR 16/10 A3022 RMK AO1 SLP225
METAR CYNL 260300Z AUTO 30003KT FEW066 20/09 A3022 RMK AO1 SLP221
METAR CYNL 260200Z AUTO 28004KT FEW062 22/08 A3021 RMK AO1 SLP219
METAR CYNL 260100Z AUTO 31003KT CLR 22/07 A3021 RMK AO1 SLP221
METAR CYNL 260000Z AUTO 34002KT CLR 22/06 A3022 RMK AO1 SLP226
METAR CYNL 252300Z AUTO 33006KT FEW060 23/07 A3023 RMK AO1 SLP230
METAR CYNL 252200Z AUTO 35005KT CLR 22/06 A3024 RMK AO1 SLP235
METAR CYNL 252100Z AUTO 30003KT SCT058 21/07 A3024 RMK AO1 SLP236
METAR CYNL 252000Z AUTO 34007KT FEW052 21/08 A3024 RMK AO1 SLP235
METAR CYNL 251900Z AUTO 33005KT SCT050 20/08 A3025 RMK AO1 SLP239
METAR CYNL 251800Z AUTO 32006KT SCT048 20/08 A3026 RMK AO1 SLP241
METAR CYNL 251700Z AUTO 32006KT CLR 19/08 A3026 RMK AO1 SLP243
METAR CYNL 251600Z AUTO 31007KT CLR 18/08 A3027 RMK AO1 SLP245
METAR CYNL 251500Z AUTO 34008KT CLR 17/07 A3027 RMK AO1 SLP248
METAR CYNL 251400Z AUTO 00007KT CLR 15/07 A3027 RMK AO1 SLP246
METAR CYNL 251300Z AUTO 34008KT CLR 14/07 A3026 RMK AO1 SLP245
METAR CYNL 251200Z AUTO 33005KT SCT140 11/07 A3026 RMK AO1 SLP247
METAR CYNL 251100Z AUTO 32004KT CLR 11/07 A3026 RMK AO1 SLP245
METAR CYNL 251000Z AUTO 34004KT FEW140 11/07 A3026 RMK AO1 SLP245
METAR CYNL 250900Z AUTO 34005KT CLR 11/07 A3026 RMK AO1 SLP247
METAR CYNL 250800Z AUTO 34005KT OVC140 12/07 A3026 RMK AO1 SLP247
METAR CYNL 250700Z AUTO 35004KT OVC140 12/08 A3026 RMK AO1 SLP247
METAR CYNL 250600Z AUTO 35004KT OVC140 13/08 A3025 RMK AO1 SLP245
METAR CYNL 250500Z AUTO 01006KT SCT120 13/08 A3025 RMK AO1 SLP243
METAR CYNL 250400Z AUTO 00004KT BKN140 13/09 A3024 RMK AO1 SLP241
METAR CYNL 250300Z AUTO 03002KT FEW130 15/08 A3024 RMK AO1 SLP238
METAR CYNL 250200Z AUTO 03003KT CLR 16/07 A3024 RMK AO1 SLP237
METAR CYNL 250100Z AUTO 05006KT CLR 16/07 A3024 RMK AO1 SLP238
METAR CYNL 250000Z AUTO 04010KT FEW038 16/07 A3024 RMK AO1 SLP237
METAR CYNL 242300Z AUTO 04006KT SCT038 17/08 A3024 RMK AO1 SLP238
METAR CYNL 242200Z AUTO 02005KT CLR 16/07 A3024 RMK AO1 SLP239
METAR CYNL 242100Z AUTO 01008KT FEW130 SCT170 15/08 A3024 RMK AO1 SLP242
METAR CYNL 242000Z AUTO 00009KT SCT130 13/08 A3024 RMK AO1 SLP244
METAR CYNL 241900Z AUTO 03008KT FEW110 13/07 A3024 RMK AO1 SLP244
METAR CYNL 241800Z AUTO 00011G16KT FEW110 14/08 A3024 RMK AO1 SLP240
METAR CYNL 241700Z AUTO 04010G16KT SCT140 15/07 A3023 RMK AO1 SLP239
METAR CYNL 241600Z AUTO 01009G15KT CLR 15/07 A3023 RMK AO1 SLP236
METAR CYNL 241500Z AUTO 01010KT CLR 14/07 A3023 RMK AO1 SLP237
METAR CYNL 241400Z AUTO 01009KT FEW025 13/08 A3023 RMK AO1 SLP239
METAR CYNL 241300Z AUTO 01008KT FEW130 12/08 A3023 RMK AO1 SLP240
METAR CYNL 241200Z AUTO 02010KT OVC130 11/08 A3023 RMK AO1 SLP239
METAR CYNL 241100Z AUTO 02008KT OVC120 11/08 A3023 RMK AO1 SLP240
METAR CYNL 241000Z AUTO 01008KT FEW015 BKN110 11/08 A3023 RMK AO1 SLP240
METAR CYNL 240900Z AUTO 01008KT FEW017 OVC110 11/08 A3023 RMK AO1 SLP238
SPECI CYNL 240820Z AUTO 02010G16KT SCT021 BKN110 11/08 A3023 RMK AO1 SLP237
METAR CYNL 240800Z AUTO 02012KT FEW015 OVC021 12/08 A3023 RMK AO1 SLP237
SPECI CYNL 240708Z AUTO 02006KT BKN018 BKN120 12/09 A3022 RMK AO1 SLP235
METAR CYNL 240700Z AUTO 02008KT SCT019 OVC120 12/09 A3022 RMK AO1 SLP234
SPECI CYNL 240657Z AUTO 02010KT SCT019 OVC120 12/09 A3022 RMK AO1 SLP235
SPECI CYNL 240656Z AUTO 02011KT BKN019 OVC120 12/09 A3022 RMK AO1 SLP235
SPECI CYNL 240649Z AUTO 02009KT SCT019 OVC120 12/09 A3022 RMK AO1 SLP235
SPECI CYNL 240632Z AUTO 02009KT SCT019 BKN023 BKN120 12/09 A3022 RMK AO1 SLP235
SPECI CYNL 240623Z AUTO 02009KT SCT019 BKN120 12/09 A3022 RMK AO1 SLP235
SPECI CYNL 240611Z AUTO 02008KT SCT021 BKN027 12/09 A3022 RMK AO1 SLP234
SPECI CYNL 240603Z AUTO 02011KT BKN021 BKN110 12/09 A3022 RMK AO1 SLP234
METAR CYNL 240600Z AUTO 01011KT SCT021 BKN027 12/09 A3022 RMK AO1 SLP234
SPECI CYNL 240559Z AUTO 02010KT BKN021 BKN027 12/09 A3022 RMK AO1 SLP234
SPECI CYNL 240556Z AUTO 01009KT SCT021 OVC027 12/09 A3022 RMK AO1 SLP235
SPECI CYNL 240545Z AUTO 02009KT OVC024 12/09 A3022 RMK AO1 SLP235
SPECI CYNL 240516Z AUTO 02009KT BKN026 12/09 A3022 RMK AO1 SLP234
METAR CYNL 240500Z AUTO 01009KT SCT026 13/09 A3022 RMK AO1 SLP234
METAR CYNL 240400Z AUTO 01008KT FEW030 13/09 A3021 RMK AO1 SLP232
METAR CYNL 240300Z AUTO 02008KT FEW031 OVC096 13/09 A3021 RMK AO1 SLP230
SPECI CYNL 240252Z AUTO 02010KT BKN030 OVC096 13/09 A3021 RMK AO1 SLP229
SPECI CYNL 240249Z AUTO 01010KT BKN029 OVC096 13/09 A3021 RMK AO1 SLP229
SPECI CYNL 240239Z AUTO 01011KT SCT027 OVC033 13/09 A3021 RMK AO1 SLP228
METAR CYNL 240200Z AUTO 02012KT OVC027 14/10 A3020 RMK AO1 SLP227
METAR CYNL 240100Z AUTO 01009G15KT BKN025 OVC030 13/11 A3020 RMK AO1 SLP225
SPECI CYNL 240040Z AUTO 01010G16KT FEW011 BKN025 BKN070 13/11 A3020 RMK AO1 SLP225
SPECI CYNL 240032Z AUTO 01010G16KT SCT013 BKN024 13/11 A3019 RMK AO1 SLP224
SPECI CYNL 240006Z AUTO 01011G17KT FEW011 SCT020 BKN054 13/11 A3019 RMK AO1 SLP223
SPECI CYNL 240001Z AUTO 01012G17KT FEW012 SCT021 BKN026 13/11 A3019 RMK AO1 SLP223
METAR CYNL 240000Z AUTO 01012G18KT FEW012 BKN022 13/11 A3019 RMK AO1 SLP222
SPECI CYNL 232355Z AUTO 01009G20KT SCT012 BKN026 13/11 A3019 RMK AO1 SLP222
SPECI CYNL 232352Z AUTO 01011G20KT SCT012 BKN052 13/11 A3019 RMK AO1 SLP222
SPECI CYNL 232350Z AUTO 01014G20KT SCT012 BKN026 13/11 A3019 RMK AO1 SLP222
SPECI CYNL 232348Z AUTO 01012KT SCT012 BKN052 13/11 A3019 RMK AO1 SLP222
SPECI CYNL 232340Z AUTO 02012KT FEW011 SCT015 BKN026 14/11 A3019 RMK AO1 SLP221
SPECI CYNL 232330Z AUTO 01009KT SCT012 BKN020 14/12 A3018 RMK AO1 SLP221
SPECI CYNL 232320Z AUTO 01011G17KT FEW011 SCT015 BKN036 14/12 A3018 RMK AO1 SLP220
SPECI CYNL 232319Z AUTO 01009G17KT FEW011 SCT015 BKN021 14/12 A3018 RMK AO1 SLP220
SPECI CYNL 232305Z AUTO 01011G17KT SCT014 BKN036 14/12 A3018 RMK AO1 SLP219
SPECI CYNL 232303Z AUTO 01012G17KT BKN014 14/11 A3018 RMK AO1 SLP219
SPECI CYNL 232302Z AUTO 01013KT SCT014 BKN017 14/11 A3018 RMK AO1 SLP219
METAR CYNL 232300Z AUTO 02010KT BKN014 14/11 A3018 RMK AO1 SLP219
SPECI CYNL 232259Z AUTO 02009G16KT SCT014 BKN017 14/11 A3018 RMK AO1 SLP219
SPECI CYNL 232247Z AUTO 03010G18KT BKN014 BKN018 OVC021 14/11 A3018 RMK AO1 SLP218
METAR CYNL 232200Z AUTO 03013G20KT OVC020 14/11 A3017 RMK AO1 SLP215
METAR CYNL 232100Z AUTO 03012KT SCT016 BKN022 BKN041 14/11 A3015 RMK AO1 PRESRR SLP209
SPECI CYNL 232042Z AUTO 03011G17KT FEW017 BKN022 BKN027 14/11 A3015 RMK AO1 SLP208
METAR CYNL 232000Z AUTO 03016KT OVC025 16/11 A3013 RMK AO1 SLP199
SPECI CYNL 231947Z AUTO 03012G18KT FEW017 BKN025 16/11 A3012 RMK AO1 SLP197
SPECI CYNL 231938Z AUTO 04012KT FEW017 BKN022 16/11 A3012 RMK AO1 SLP196
SPECI CYNL 231936Z AUTO 03012G18KT SCT020 BKN027 16/12 A3012 RMK AO1 SLP196
METAR CYNL 231900Z AUTO 03009G16KT BKN023 BKN060 15/12 A3011 RMK AO1 SLP195
SPECI CYNL 231857Z AUTO 03011KT BKN022 BKN200 15/12 A3011 RMK AO1 SLP194
SPECI CYNL 231855Z AUTO 03010G15KT SCT022 BKN040 BKN200 14/12 A3011 RMK AO1 SLP194
METAR CYNL 231800Z AUTO 03012KT OVC016 14/12 A3010 RMK AO1 SLP189
METAR CYNL 231700Z AUTO 03010G18KT OVC015 14/12 A3008 RMK AO1 SLP182
SPECI CYNL 231649Z AUTO 03015G20KT OVC015 14/12 A3007 RMK AO1 SLP180
SPECI CYNL 231642Z AUTO 03014G20KT BKN014 OVC019 14/12 A3007 RMK AO1 SLP180
SPECI CYNL 231637Z AUTO 04013G20KT OVC015 14/12 A3007 RMK AO1 SLP179
SPECI CYNL 231622Z AUTO 04011G22KT BKN014 OVC019 14/12 A3006 RMK AO1 SLP177
SPECI CYNL 231619Z AUTO 04013G22KT SCT012 BKN015 OVC019 14/12 A3006 RMK AO1 SLP176
SPECI CYNL 231604Z AUTO 04014G24KT SCT011 BKN014 OVC019 15/12 A3006 RMK AO1 SLP176
METAR CYNL 231600Z AUTO 05013G25KT SCT011 OVC018 15/12 A3006 RMK AO1 SLP175
SPECI CYNL 231559Z AUTO 04012G25KT SCT011 BKN015 OVC019 15/12 A3006 RMK AO1 SLP175
SPECI CYNL 231545Z AUTO 03013KT BKN011 BKN016 15/13 A3005 RMK AO1 SLP173
SPECI CYNL 231538Z AUTO 04013G20KT SCT012 BKN015 BKN020 15/13 A3005 RMK AO1 SLP172
SPECI CYNL 231537Z AUTO 03012G20KT BKN012 BKN020 15/13 A3005 RMK AO1 SLP172
SPECI CYNL 231536Z AUTO 04013G20KT SCT012 BKN016 15/13 A3005 RMK AO1 SLP172
SPECI CYNL 231535Z AUTO 03014G20KT BKN013 15/13 A3005 RMK AO1 SLP172
SPECI CYNL 231533Z AUTO 03011G20KT SCT012 BKN015 15/13 A3005 RMK AO1 SLP171
METAR CYNL 231500Z AUTO 03013G19KT BKN011 BKN020 15/13 A3004 RMK AO1 SLP168
METAR CYNL 231400Z AUTO 03013KT OVC012 14/13 A3002 RMK AO1 SLP162
SPECI CYNL 231339Z AUTO 02011G18KT BKN012 14/13 A3002 RMK AO1 SLP160
SPECI CYNL 231337Z AUTO 02011G18KT SCT012 BKN016 14/13 A3002 RMK AO1 SLP160
SPECI CYNL 231336Z AUTO 03009G18KT BKN012 14/13 A3002 RMK AO1 SLP160
SPECI CYNL 231316Z AUTO 03013G18KT FEW011 SCT014 14/13 A3001 RMK AO1 SLP159
SPECI CYNL 231314Z AUTO 03010G16KT SCT011 BKN017 14/13 A3001 RMK AO1 SLP158
SPECI CYNL 231311Z AUTO 02012KT FEW010 BKN014 14/13 A3001 RMK AO1 SLP158
SPECI CYNL 231305Z AUTO 02010G16KT FEW009 SCT012 BKN015 14/13 A3001 RMK AO1 SLP158
SPECI CYNL 231304Z AUTO 03011G17KT SCT010 BKN015 14/13 A3001 RMK AO1 SLP158
METAR CYNL 231300Z AUTO 03011G19KT SCT010 BKN014 14/13 A3001 RMK AO1 SLP158